M I D A S
Marine Information and Data Acquisition System
Tripno 1147 of the Zeeleeuw from 2006-08-17 06:46:29 to 2006-08-17 13:01:26
Back to CruiseResearch ActivitiesStationsMapUnderway DataData graphs

EquipmentUnitsComment
TimeDGPSUTC
LatitudeDGPSDM.mWGS84
LongitudeDGPSDM.mWGS84
TemperatureSBE03/SBE38deg celciusITS90
ConductivitySBE21S/mITS90
SalinitySBE21 Practical Salinity Units
ChlorophylAChelsea fluorimeterg/lCalibrated in Aceton
Missing or incorrect values are displayed as -999
Sea surface data collected by the RV Zeeleeuw from 2006-08-17 06:44:46 to 2006-08-17 13:12:28
                                                                                    Next 1000 lines
Time Latitude Longitude Temperature Conductivity Salinity ChlorophylA
2006-08-17 06:44:56 51°13.601 2°56.094 20.3989 0.007991 0.043987 -0.005933
2006-08-17 06:45:01 51°13.601 2°56.091 20.4069 0.007991 0.043987 0.027777
2006-08-17 06:45:06 51°13.602 2°56.088 20.414 0.007991 0.043987 0.027777
2006-08-17 06:45:11 51°13.603 2°56.084 20.4067 0.007991 0.043987 -0.005933
2006-08-17 06:45:16 51°13.604 2°56.078 20.4664 0.007991 0.043988 -0.005933
2006-08-17 06:45:21 51°13.605 2°56.072 20.4434 0.007991 0.043988 -0.005933
2006-08-17 06:45:26 51°13.607 2°56.065 20.4545 0.007991 0.043988 -0.005933
2006-08-17 06:45:31 51°13.608 2°56.058 20.4543 0.007991 0.043988 -0.005933
2006-08-17 06:45:36 51°13.609 2°56.051 20.4478 0.007991 0.043988 -0.005933
2006-08-17 06:45:42 51°13.611 2°56.042 20.4498 0.007991 0.043988 -0.005933
2006-08-17 06:45:46 51°13.612 2°56.036 20.4556 0.007991 0.043988 -0.005933
2006-08-17 06:45:52 51°13.613 2°56.027 20.4583 0.007991 0.043988 0.027777
2006-08-17 06:45:56 51°13.614 2°56.021 20.4609 0.007991 0.043988 -0.005933
2006-08-17 06:46:02 51°13.616 2°56.011 20.4659 0.007991 0.043988 0.027777
2006-08-17 06:46:06 51°13.618 2°56.005 20.4679 0.007991 0.043988 0.027777
2006-08-17 06:46:11 51°13.62 2°55.997 20.4645 0.007991 0.043988 -0.005933
2006-08-17 06:46:16 51°13.622 2°55.989 20.4731 0.007991 0.043989 -0.005933
2006-08-17 06:46:22 51°13.624 2°55.979 20.4632 0.007991 0.043989 -0.005933
2006-08-17 06:46:26 51°13.626 2°55.972 20.4724 0.007991 0.043989 -0.005933
2006-08-17 06:46:31 51°13.629 2°55.963 20.468 0.007991 0.043989 -0.005933
2006-08-17 06:46:36 51°13.631 2°55.955 20.4687 0.007991 0.043989 -0.005933
2006-08-17 06:46:42 51°13.635 2°55.944 20.4686 0.007991 0.043989 -0.005933
2006-08-17 06:46:46 51°13.638 2°55.937 20.4691 0.007991 0.043989 0.027777
2006-08-17 06:46:51 51°13.641 2°55.928 20.4689 0.007991 0.043989 0.027777
2006-08-17 06:46:56 51°13.645 2°55.919 20.4703 0.007991 0.04399 0.027777
2006-08-17 06:47:02 51°13.649 2°55.909 20.472 0.007991 0.04399 0.027777
2006-08-17 06:47:06 51°13.652 2°55.902 20.4776 0.007991 0.04399 0.027777
2006-08-17 06:47:11 51°13.656 2°55.894 20.4761 0.007991 0.04399 -0.005933
2006-08-17 06:47:16 51°13.659 2°55.887 20.4655 0.007991 0.04399 -0.005933
2006-08-17 06:47:21 51°13.663 2°55.879 20.4659 0.007991 0.04399 -0.039642
2006-08-17 06:47:26 51°13.667 2°55.871 20.4655 0.007991 0.04399 -0.005933
2006-08-17 06:47:31 51°13.67 2°55.863 20.4645 0.007991 0.04399 -0.005933
2006-08-17 06:47:36 51°13.674 2°55.854 20.4635 0.007991 0.04399 -0.005933
2006-08-17 06:47:41 51°13.678 2°55.845 20.4776 0.007991 0.043991 0.027777
2006-08-17 06:47:46 51°13.683 2°55.837 20.4773 0.007991 0.043991 -0.005933
2006-08-17 06:47:52 51°13.687 2°55.827 20.4761 0.007991 0.043991 -0.039642
2006-08-17 06:47:56 51°13.69 2°55.821 20.4765 0.007991 0.043991 -0.005933
2006-08-17 06:48:01 51°13.693 2°55.812 20.4761 0.007991 0.043991 -0.005933
2006-08-17 06:48:06 51°13.697 2°55.804 20.4757 0.007991 0.043991 -0.005933
2006-08-17 06:48:12 51°13.701 2°55.794 20.4776 0.007991 0.043991 -0.005933
2006-08-17 06:48:16 51°13.703 2°55.787 20.4793 0.007991 0.043991 -0.005933
2006-08-17 06:48:22 51°13.706 2°55.777 20.479 0.007991 0.043992 -0.005933
2006-08-17 06:48:26 51°13.708 2°55.771 20.4728 0.007991 0.043992 -0.005933
2006-08-17 06:48:31 51°13.71 2°55.764 20.4754 0.007991 0.043992 0.027777
2006-08-17 06:48:36 51°13.712 2°55.756 20.477 0.007991 0.043992 0.027777
2006-08-17 06:48:42 51°13.715 2°55.747 20.4794 0.007991 0.043992 -0.005933
2006-08-17 06:48:46 51°13.716 2°55.741 20.4806 0.007991 0.043992 -0.005933
2006-08-17 06:48:51 51°13.717 2°55.734 20.4807 0.007991 0.043992 -0.005933
2006-08-17 06:48:56 51°13.719 2°55.728 20.4807 0.007991 0.043992 0.027777
2006-08-17 06:49:02 51°13.72 2°55.72 20.4944 0.007991 0.043993 -0.039642
2006-08-17 06:49:06 51°13.721 2°55.716 20.4984 0.007991 0.043993 -0.039642
2006-08-17 06:49:11 51°13.721 2°55.713 20.557 0.007991 0.043993 -0.005933
2006-08-17 06:49:16 51°13.722 2°55.711 20.5659 0.007991 0.043993 -0.005933
2006-08-17 06:49:21 51°13.723 2°55.712 20.5614 0.007991 0.043993 0.027777
2006-08-17 06:49:26 51°13.724 2°55.714 20.5506 0.007991 0.043993 -0.005933
2006-08-17 06:49:31 51°13.726 2°55.717 20.5461 0.007991 0.043993 -0.005933
2006-08-17 06:49:36 51°13.727 2°55.719 20.5104 0.007991 0.043993 -0.005933
2006-08-17 06:49:41 51°13.729 2°55.721 20.5057 0.007991 0.043993 -0.005933
2006-08-17 06:49:46 51°13.731 2°55.723 20.4817 0.007991 0.043994 -0.005933
2006-08-17 06:49:50 51°13.732 2°55.724 20.4758 0.007991 0.043994 -0.005933
2006-08-17 06:49:56 51°13.733 2°55.725 20.4735 0.007991 0.043994 -0.005933
2006-08-17 06:50:01 51°13.733 2°55.725 20.4171 0.007991 0.043995 -0.005933
2006-08-17 06:50:05 51°13.733 2°55.724 20.4638 0.007991 0.043995 -0.005933
2006-08-17 06:50:11 51°13.731 2°55.723 20.472 0.007991 0.043995 -0.005933
2006-08-17 06:50:16 51°13.73 2°55.721 20.4751 0.007991 0.043995 -0.005933
2006-08-17 06:50:21 51°13.728 2°55.72 20.5059 0.007991 0.043995 -0.005933
2006-08-17 06:50:26 51°13.726 2°55.718 20.4994 0.007991 0.043995 -0.005933
2006-08-17 06:50:32 51°13.723 2°55.716 20.4996 0.007991 0.043995 -0.005933
2006-08-17 06:50:36 51°13.722 2°55.716 20.5013 0.007991 0.043995 -0.005933
2006-08-17 06:50:42 51°13.72 2°55.714 20.526 0.007991 0.043995 -0.005933
2006-08-17 06:50:46 51°13.719 2°55.714 20.5374 0.007991 0.043995 -0.005933
2006-08-17 06:50:51 51°13.72 2°55.714 20.5434 0.007991 0.043995 -0.039642
2006-08-17 06:50:56 51°13.721 2°55.713 20.5373 0.007991 0.043995 -0.005933
2006-08-17 06:51:02 51°13.722 2°55.713 20.5376 0.007991 0.043995 -0.005933
2006-08-17 06:51:06 51°13.724 2°55.712 20.5377 0.007991 0.043995 -0.005933
2006-08-17 06:51:11 51°13.725 2°55.712 20.5387 0.007991 0.043996 -0.005933
2006-08-17 06:51:16 51°13.728 2°55.711 20.5368 0.007991 0.043996 0.027777
2006-08-17 06:51:22 51°13.73 2°55.71 20.5326 0.007991 0.043996 -0.005933
2006-08-17 06:51:26 51°13.732 2°55.708 20.5345 0.007991 0.043996 -0.005933
2006-08-17 06:51:30 51°13.734 2°55.707 20.5335 0.007991 0.043997 -0.005933
2006-08-17 06:51:36 51°13.738 2°55.705 20.5327 0.007991 0.043997 -0.005933
2006-08-17 06:51:41 51°13.741 2°55.703 20.5316 0.007991 0.043997 -0.005933
2006-08-17 06:51:47 51°13.745 2°55.7 20.5298 0.007991 0.043997 -0.005933
2006-08-17 06:51:50 51°13.748 2°55.699 20.5285 0.007991 0.043997 -0.005933
2006-08-17 06:51:56 51°13.752 2°55.695 20.5279 0.007991 0.043997 -0.005933
2006-08-17 06:52:01 51°13.756 2°55.693 20.5223 0.007991 0.043997 -0.005933
2006-08-17 06:52:06 51°13.761 2°55.689 20.5125 0.007991 0.043997 -0.005933
2006-08-17 06:52:11 51°13.765 2°55.686 20.5106 0.007991 0.043997 -0.005933
2006-08-17 06:52:16 51°13.77 2°55.683 20.5055 0.007991 0.043997 -0.005933
2006-08-17 06:52:21 51°13.775 2°55.679 20.5064 0.007991 0.043997 -0.039642
2006-08-17 06:52:26 51°13.779 2°55.675 20.5081 0.007991 0.043997 -0.039642
2006-08-17 06:52:31 51°13.785 2°55.671 20.5043 0.007991 0.043997 -0.005933
2006-08-17 06:52:36 51°13.79 2°55.667 20.5013 0.007991 0.043997 -0.005933
2006-08-17 06:52:41 51°13.795 2°55.663 20.4979 0.007991 0.043998 -0.005933
2006-08-17 06:52:46 51°13.8 2°55.659 20.4967 0.007991 0.043998 -0.005933
2006-08-17 06:52:51 51°13.806 2°55.655 20.495 0.007991 0.043998 -0.039642
2006-08-17 06:52:56 51°13.811 2°55.65 20.4942 0.007991 0.043998 0.027777
2006-08-17 06:53:01 51°13.816 2°55.646 20.4934 0.007991 0.043998 -0.005933
2006-08-17 06:53:06 51°13.822 2°55.642 20.491 0.007991 0.043998 -0.005933
2006-08-17 06:53:11 51°13.828 2°55.638 20.4916 0.007991 0.043998 -0.005933
2006-08-17 06:53:16 51°13.834 2°55.633 20.4903 0.007991 0.043998 0.027777
2006-08-17 06:53:21 51°13.84 2°55.629 20.4929 0.007991 0.043998 -0.005933
2006-08-17 06:53:26 51°13.845 2°55.625 20.4948 0.007991 0.043998 -0.005933
2006-08-17 06:53:31 51°13.851 2°55.62 20.4966 0.007991 0.043998 -0.005933
2006-08-17 06:53:35 51°13.856 2°55.616 20.4978 0.007991 0.043998 -0.005933
2006-08-17 06:53:41 51°13.863 2°55.611 20.4989 0.007991 0.043998 0.027777
2006-08-17 06:53:46 51°13.869 2°55.606 20.4984 0.007991 0.043999 0.027777
2006-08-17 06:53:51 51°13.875 2°55.601 20.499 0.007991 0.043998 -0.005933
2006-08-17 06:53:56 51°13.881 2°55.596 20.4996 0.007991 0.043999 -0.005933
2006-08-17 06:54:01 51°13.888 2°55.592 20.4957 0.007991 0.043999 -0.005933
2006-08-17 06:54:06 51°13.894 2°55.587 20.4944 0.007991 0.043999 -0.005933
2006-08-17 06:54:11 51°13.9 2°55.582 20.4906 0.007991 0.043999 -0.005933
2006-08-17 06:54:16 51°13.906 2°55.577 20.4876 0.007991 0.043999 -0.005933
2006-08-17 06:54:21 51°13.913 2°55.572 20.4986 0.007991 0.043999 0.027777
2006-08-17 06:54:26 51°13.919 2°55.567 20.5031 0.007991 0.043999 -0.005933
2006-08-17 06:54:31 51°13.926 2°55.563 20.5056 0.007991 0.043999 0.027777
2006-08-17 06:54:36 51°13.932 2°55.558 20.5063 0.007991 0.043999 0.027777
2006-08-17 06:54:41 51°13.938 2°55.553 20.5024 0.007991 0.043999 0.027777
2006-08-17 06:54:46 51°13.945 2°55.548 20.5023 0.007991 0.044 -0.005933
2006-08-17 06:54:51 51°13.951 2°55.543 20.5025 0.007991 0.044 -0.005933
2006-08-17 06:54:56 51°13.958 2°55.539 20.5027 0.007991 0.044 -0.005933
2006-08-17 06:55:00 51°13.963 2°55.535 20.5012 0.007991 0.044 -0.005933
2006-08-17 06:55:06 51°13.971 2°55.53 20.5037 0.007991 0.044 -0.005933
2006-08-17 06:55:10 51°13.976 2°55.526 20.5072 0.007991 0.044 -0.005933
2006-08-17 06:55:16 51°13.984 2°55.52 20.5086 0.007991 0.044 -0.005933
2006-08-17 06:55:21 51°13.99 2°55.515 20.5097 0.007991 0.044 -0.005933
2006-08-17 06:55:26 51°13.997 2°55.511 20.5047 0.007991 0.044 0.027777
2006-08-17 06:55:31 51°14.003 2°55.506 20.5042 0.007991 0.044 0.027777
2006-08-17 06:55:35 51°14.008 2°55.502 20.5038 0.007991 0.044 0.027777
2006-08-17 06:55:41 51°14.016 2°55.496 20.507 0.007991 0.044 0.027777
2006-08-17 06:55:46 51°14.023 2°55.492 20.5104 0.007991 0.044001 -0.005933
2006-08-17 06:55:50 51°14.028 2°55.488 20.5148 0.007991 0.044 0.027777
2006-08-17 06:55:56 51°14.036 2°55.482 20.5154 0.007991 0.044 0.027777
2006-08-17 06:56:01 51°14.043 2°55.476 20.518 0.007991 0.044001 -0.005933
2006-08-17 06:56:06 51°14.05 2°55.471 20.5168 0.007991 0.044001 -0.005933
2006-08-17 06:56:10 51°14.056 2°55.467 20.5004 0.007991 0.044001 0.027777
2006-08-17 06:56:16 51°14.065 2°55.46 20.5044 0.007991 0.044 -0.039642
2006-08-17 06:56:21 51°14.073 2°55.454 20.514 0.007991 0.044001 -0.005933
2006-08-17 06:56:26 51°14.081 2°55.448 20.5177 0.007991 0.044001 -0.005933
2006-08-17 06:56:31 51°14.09 2°55.442 20.5193 0.007991 0.044001 -0.005933
2006-08-17 06:56:36 51°14.098 2°55.435 20.5114 0.007991 0.044001 -0.005933
2006-08-17 06:56:41 51°14.106 2°55.428 20.5172 0.007991 0.044001 -0.005933
2006-08-17 06:56:46 51°14.115 2°55.421 20.513 0.007991 0.044001 -0.005933
2006-08-17 06:56:51 51°14.123 2°55.414 20.4852 0.007991 0.044001 0.027777
2006-08-17 06:56:56 51°14.132 2°55.406 20.4743 0.007991 0.044001 -0.005933
2006-08-17 06:57:01 51°14.141 2°55.398 20.4889 0.007991 0.044001 -0.005933
2006-08-17 06:57:06 51°14.149 2°55.391 20.5028 0.007991 0.044001 -0.005933
2006-08-17 06:57:11 51°14.158 2°55.383 20.5133 0.007991 0.044001 -0.005933
2006-08-17 06:57:16 51°14.167 2°55.375 20.5194 0.007991 0.044002 0.027777
2006-08-17 06:57:21 51°14.175 2°55.367 20.5196 0.007991 0.044001 -0.039642
2006-08-17 06:57:26 51°14.184 2°55.358 20.5206 0.007991 0.044002 -0.005933
2006-08-17 06:57:31 51°14.193 2°55.349 20.524 0.007991 0.044002 -0.005933
2006-08-17 06:57:35 51°14.199 2°55.341 20.5138 0.007991 0.044002 -0.005933
2006-08-17 06:57:41 51°14.209 2°55.329 20.4951 0.007991 0.044002 -0.005933
2006-08-17 06:57:46 51°14.218 2°55.32 20.5111 0.007991 0.044002 -0.005933
2006-08-17 06:57:51 51°14.226 2°55.309 20.496 0.007991 0.044002 -0.005933
2006-08-17 06:57:56 51°14.234 2°55.299 20.5234 0.007991 0.044002 0.027777
2006-08-17 06:58:01 51°14.243 2°55.288 20.5292 0.007991 0.044002 -0.005933
2006-08-17 06:58:06 51°14.251 2°55.277 20.5514 0.007991 0.044002 -0.005933
2006-08-17 06:58:11 51°14.259 2°55.265 20.5351 0.007991 0.044002 -0.005933
2006-08-17 06:58:16 51°14.267 2°55.253 20.5146 0.007991 0.044002 0.027777
2006-08-17 06:58:21 51°14.275 2°55.24 20.4671 0.007991 0.044002 0.027777
2006-08-17 06:58:26 51°14.283 2°55.227 20.494 0.007991 0.044003 -0.005933
2006-08-17 06:58:31 51°14.291 2°55.214 20.5251 0.007991 0.044002 -0.039642
2006-08-17 06:58:36 51°14.299 2°55.2 20.4953 0.007991 0.044002 -0.039642
2006-08-17 06:58:40 51°14.305 2°55.19 20.4838 0.007991 0.044002 0.027777
2006-08-17 06:58:46 51°14.315 2°55.173 20.5173 0.007991 0.044002 -0.005933
2006-08-17 06:58:51 51°14.323 2°55.16 20.5361 0.007991 0.044003 -0.039642
2006-08-17 06:58:56 51°14.331 2°55.146 20.5137 0.007991 0.044003 -0.005933
2006-08-17 06:59:01 51°14.34 2°55.131 20.5559 0.007991 0.044002 -0.005933
2006-08-17 06:59:06 51°14.349 2°55.116 20.5651 0.007991 0.044002 -0.005933
2006-08-17 06:59:11 51°14.357 2°55.1 20.5766 0.007991 0.044002 0.027777
2006-08-17 06:59:16 51°14.365 2°55.083 20.5655 0.007991 0.044003 -0.005933
2006-08-17 06:59:21 51°14.372 2°55.066 20.5269 0.007991 0.044003 -0.005933
2006-08-17 06:59:25 51°14.378 2°55.052 20.4316 0.007991 0.044004 -0.005933
2006-08-17 06:59:31 51°14.388 2°55.031 20.4771 0.007991 0.044004 -0.005933
2006-08-17 06:59:36 51°14.395 2°55.013 20.5047 0.007991 0.044004 -0.005933
2006-08-17 06:59:41 51°14.404 2°54.996 20.522 0.007991 0.044003 -0.039642
2006-08-17 06:59:46 51°14.412 2°54.978 20.4363 0.007991 0.044003 -0.005933
2006-08-17 06:59:51 51°14.419 2°54.959 20.4522 0.007991 0.044003 -0.005933
2006-08-17 06:59:56 51°14.427 2°54.941 20.4127 0.007991 0.044004 -0.005933
2006-08-17 07:00:00 51°14.435 2°54.927 20.4227 0.007991 0.044003 0.027777
2006-08-17 07:00:06 51°14.446 2°54.906 20.4171 0.007991 0.044003 0.027777
2006-08-17 07:00:11 51°14.457 2°54.891 20.4575 0.007991 0.044003 0.027777
2006-08-17 07:00:15 51°14.467 2°54.879 20.4803 0.007991 0.044003 -0.005933
2006-08-17 07:00:21 51°14.481 2°54.863 20.4825 0.007991 0.044004 -0.005933
2006-08-17 07:00:25 51°14.491 2°54.852 20.4746 0.007991 0.044004 -0.005933
2006-08-17 07:00:31 51°14.506 2°54.836 20.4732 0.007991 0.044003 -0.005933
2006-08-17 07:00:36 51°14.519 2°54.823 20.4438 0.007991 0.044003 -0.005933
2006-08-17 07:00:41 51°14.532 2°54.811 20.4788 0.007991 0.044004 0.027777
2006-08-17 07:00:46 51°14.545 2°54.798 20.4917 0.007991 0.044004 -0.039642
2006-08-17 07:00:51 51°14.558 2°54.786 20.4897 0.007991 0.044005 -0.039642
2006-08-17 07:00:56 51°14.572 2°54.775 20.4769 0.007991 0.044005 -0.005933
2006-08-17 07:01:01 51°14.585 2°54.763 20.49 0.007991 0.044005 -0.005933
2006-08-17 07:01:06 51°14.599 2°54.752 20.4825 0.007991 0.044005 -0.005933
2006-08-17 07:01:10 51°14.61 2°54.743 20.4944 0.007991 0.044005 -0.005933
2006-08-17 07:01:16 51°14.626 2°54.729 20.497 0.007991 0.044005 -0.005933
2006-08-17 07:01:21 51°14.64 2°54.718 20.5009 0.007991 0.044006 -0.005933
2006-08-17 07:01:26 51°14.654 2°54.707 20.517 0.007991 0.044006 -0.005933
2006-08-17 07:01:31 51°14.668 2°54.696 20.5359 0.007991 0.044007 -0.005933
2006-08-17 07:01:36 51°14.682 2°54.684 20.5365 0.007991 0.044007 -0.005933
2006-08-17 07:01:41 51°14.695 2°54.672 20.5217 0.007991 0.044007 -0.005933
2006-08-17 07:01:46 51°14.708 2°54.659 20.5247 0.007991 0.044007 -0.005933
2006-08-17 07:01:51 51°14.72 2°54.645 20.5333 0.007991 0.044007 -0.005933
2006-08-17 07:01:56 51°14.732 2°54.63 20.5002 0.007991 0.044008 -0.005933
2006-08-17 07:02:01 51°14.744 2°54.615 20.4928 0.007991 0.044008 -0.005933
2006-08-17 07:02:06 51°14.756 2°54.599 20.4713 0.007991 0.044008 -0.005933
2006-08-17 07:02:11 51°14.768 2°54.584 20.4855 0.007991 0.044008 -0.005933
2006-08-17 07:02:16 51°14.779 2°54.568 20.448 0.007991 0.044008 0.027777
2006-08-17 07:02:21 51°14.791 2°54.552 20.4372 0.007991 0.044008 0.027777
2006-08-17 07:02:26 51°14.803 2°54.535 20.4551 0.007991 0.044008 0.027777
2006-08-17 07:02:31 51°14.815 2°54.519 20.4591 0.007991 0.044008 -0.005933
2006-08-17 07:02:36 51°14.827 2°54.502 20.4666 0.007991 0.044008 -0.005933
2006-08-17 07:02:41 51°14.839 2°54.486 20.4428 0.007991 0.044008 0.027777
2006-08-17 07:02:46 51°14.852 2°54.469 20.4382 0.007991 0.044009 -0.005933
2006-08-17 07:02:50 51°14.862 2°54.455 20.4654 0.007991 0.044008 -0.005933
2006-08-17 07:02:56 51°14.876 2°54.434 20.4511 0.007991 0.044009 -0.005933
2006-08-17 07:03:01 51°14.889 2°54.417 20.5008 0.007991 0.044009 -0.005933
2006-08-17 07:03:06 51°14.901 2°54.4 20.5349 0.007991 0.044009 -0.005933
2006-08-17 07:03:10 51°14.911 2°54.385 20.5277 0.007991 0.04401 -0.005933
2006-08-17 07:03:16 51°14.924 2°54.362 20.4928 0.007991 0.04401 -0.005933
2006-08-17 07:03:21 51°14.934 2°54.342 20.4795 0.007991 0.04401 0.027777
2006-08-17 07:03:26 51°14.944 2°54.321 20.5023 0.007991 0.04401 -0.005933
2006-08-17 07:03:31 51°14.954 2°54.301 20.4928 0.007991 0.04401 -0.005933
2006-08-17 07:03:36 51°14.963 2°54.279 20.5031 0.007991 0.04401 -0.005933
2006-08-17 07:03:41 51°14.972 2°54.258 20.4793 0.007991 0.044011 -0.005933
2006-08-17 07:03:46 51°14.981 2°54.236 20.4883 0.007991 0.044011 0.027777
2006-08-17 07:03:51 51°14.989 2°54.214 20.4745 0.007991 0.044011 -0.005933
2006-08-17 07:03:56 51°14.997 2°54.191 20.4494 0.007991 0.044011 -0.005933
2006-08-17 07:04:01 51°15.006 2°54.169 20.4752 0.007991 0.044011 -0.005933
2006-08-17 07:04:05 51°15.012 2°54.151 20.4503 0.007991 0.044011 -0.005933
2006-08-17 07:04:11 51°15.022 2°54.123 20.4838 0.007991 0.044012 -0.039642
2006-08-17 07:04:16 51°15.03 2°54.101 20.4719 0.007991 0.044012 -0.039642
2006-08-17 07:04:21 51°15.038 2°54.078 20.4694 0.007991 0.044012 -0.005933
2006-08-17 07:04:25 51°15.044 2°54.06 20.4819 0.007991 0.044012 -0.005933
2006-08-17 07:04:31 51°15.054 2°54.032 20.4943 0.007991 0.044012 -0.005933
2006-08-17 07:04:36 51°15.062 2°54.009 20.4743 0.007991 0.044012 -0.005933
2006-08-17 07:04:41 51°15.07 2°53.986 20.4904 0.007991 0.044012 -0.005933
2006-08-17 07:04:45 51°15.077 2°53.968 20.4741 0.007991 0.044013 -0.005933
2006-08-17 07:04:51 51°15.087 2°53.94 20.4793 0.007991 0.044013 -0.005933
2006-08-17 07:04:55 51°15.093 2°53.922 20.506 0.007991 0.044013 -0.005933
2006-08-17 07:05:01 51°15.103 2°53.895 20.5029 0.007991 0.044013 -0.005933
2006-08-17 07:05:06 51°15.111 2°53.871 20.4911 0.007991 0.044013 -0.005933
2006-08-17 07:05:11 51°15.119 2°53.848 20.4558 0.007991 0.044014 -0.005933
2006-08-17 07:05:16 51°15.128 2°53.826 20.468 0.007991 0.044014 -0.005933
2006-08-17 07:05:21 51°15.137 2°53.803 20.472 0.007991 0.044014 -0.005933
2006-08-17 07:05:26 51°15.146 2°53.781 20.4825 0.007991 0.044014 -0.005933
2006-08-17 07:05:31 51°15.156 2°53.759 20.4955 0.007991 0.044014 -0.005933
2006-08-17 07:05:36 51°15.165 2°53.737 20.4806 0.007991 0.044014 -0.005933
2006-08-17 07:05:41 51°15.175 2°53.715 20.4835 0.007991 0.044014 0.027777
2006-08-17 07:05:45 51°15.183 2°53.698 20.492 0.007991 0.044014 0.027777
2006-08-17 07:05:51 51°15.195 2°53.672 20.4984 0.007991 0.044015 0.027777
2006-08-17 07:05:56 51°15.205 2°53.651 20.5131 0.007991 0.044015 -0.005933
2006-08-17 07:06:01 51°15.215 2°53.63 20.5136 0.007991 0.044015 -0.005933
2006-08-17 07:06:06 51°15.225 2°53.608 20.5043 0.007991 0.044015 -0.005933
2006-08-17 07:06:11 51°15.234 2°53.586 20.507 0.007991 0.044016 -0.039642
2006-08-17 07:06:16 51°15.244 2°53.565 20.4963 0.007991 0.044016 0.027777
2006-08-17 07:06:21 51°15.254 2°53.544 20.4808 0.007991 0.044016 -0.005933
2006-08-17 07:06:26 51°15.264 2°53.522 20.5045 0.007991 0.044016 -0.005933
2006-08-17 07:06:31 51°15.273 2°53.501 20.5138 0.007991 0.044016 -0.005933
2006-08-17 07:06:36 51°15.283 2°53.479 20.5168 0.007991 0.044016 -0.005933
2006-08-17 07:06:41 51°15.293 2°53.458 20.5228 0.007991 0.044017 0.027777
2006-08-17 07:06:46 51°15.302 2°53.436 20.5294 0.007991 0.044017 -0.005933
2006-08-17 07:06:50 51°15.309 2°53.419 20.5399 0.007991 0.044017 -0.039642
2006-08-17 07:06:56 51°15.32 2°53.393 20.5486 0.007991 0.044018 -0.005933
2006-08-17 07:07:01 51°15.329 2°53.371 20.5426 0.007991 0.044018 -0.005933
2006-08-17 07:07:06 51°15.337 2°53.348 20.5383 0.007991 0.044018 -0.005933
2006-08-17 07:07:11 51°15.345 2°53.326 20.547 0.007991 0.044018 0.027777
2006-08-17 07:07:15 51°15.351 2°53.307 20.5417 0.007991 0.044018 -0.005933
2006-08-17 07:07:21 51°15.36 2°53.28 20.562 0.007991 0.044019 -0.005933
2006-08-17 07:07:26 51°15.367 2°53.256 20.5503 0.007991 0.044019 -0.005933
2006-08-17 07:07:31 51°15.374 2°53.233 20.5562 0.007991 0.044019 -0.005933
2006-08-17 07:07:36 51°15.38 2°53.209 20.5196 0.007991 0.044019 -0.005933
2006-08-17 07:07:41 51°15.386 2°53.186 20.4953 0.007991 0.04402 0.027777
2006-08-17 07:07:46 51°15.392 2°53.162 20.5183 0.007991 0.04402 -0.005933
2006-08-17 07:07:51 51°15.398 2°53.138 20.5264 0.007991 0.04402 -0.005933
2006-08-17 07:07:56 51°15.404 2°53.114 20.5287 0.007991 0.04402 -0.039642
2006-08-17 07:08:01 51°15.41 2°53.09 20.5179 0.007991 0.04402 -0.005933
2006-08-17 07:08:06 51°15.416 2°53.066 20.5208 0.007991 0.04402 -0.005933
2006-08-17 07:08:11 51°15.421 2°53.042 20.5053 0.007991 0.04402 -0.005933
2006-08-17 07:08:16 51°15.428 2°53.019 20.5161 0.007991 0.044021 -0.005933
2006-08-17 07:08:21 51°15.435 2°52.995 20.509 0.007991 0.044021 0.027777
2006-08-17 07:08:26 51°15.441 2°52.972 20.5276 0.007991 0.044021 -0.005933
2006-08-17 07:08:31 51°15.449 2°52.949 20.537 0.007991 0.044021 0.027777
2006-08-17 07:08:36 51°15.456 2°52.926 20.5343 0.007991 0.044021 0.027777
2006-08-17 07:08:41 51°15.464 2°52.903 20.5452 0.007991 0.044022 0.027777
2006-08-17 07:08:46 51°15.471 2°52.88 20.5376 0.007991 0.044021 -0.005933
2006-08-17 07:08:51 51°15.479 2°52.857 20.5349 0.007991 0.044022 -0.005933
2006-08-17 07:08:56 51°15.487 2°52.835 20.5403 0.007991 0.044022 -0.005933
2006-08-17 07:09:01 51°15.495 2°52.812 20.5543 0.007991 0.044023 -0.005933
2006-08-17 07:09:06 51°15.503 2°52.789 20.5627 0.007991 0.044023 -0.005933
2006-08-17 07:09:11 51°15.51 2°52.766 20.5564 0.007991 0.044023 -0.005933
2006-08-17 07:09:16 51°15.518 2°52.743 20.5628 0.007991 0.044023 0.027777
2006-08-17 07:09:21 51°15.525 2°52.72 20.5316 0.007991 0.044024 -0.005933
2006-08-17 07:09:26 51°15.531 2°52.697 20.541 0.007991 0.044024 0.027777
2006-08-17 07:09:31 51°15.538 2°52.674 20.5669 0.007991 0.044024 0.027777
2006-08-17 07:09:35 51°15.543 2°52.655 20.5766 0.007991 0.044024 0.027777
2006-08-17 07:09:41 51°15.55 2°52.626 20.5658 0.007991 0.044024 -0.039642
2006-08-17 07:09:46 51°15.556 2°52.602 20.563 0.007991 0.044024 -0.005933
2006-08-17 07:09:51 51°15.562 2°52.579 20.5599 0.007991 0.044025 -0.005933
2006-08-17 07:09:56 51°15.567 2°52.555 20.5397 0.007991 0.044025 -0.005933
2006-08-17 07:10:01 51°15.572 2°52.53 20.3031 0.007991 0.044026 -0.005933
2006-08-17 07:10:06 51°15.577 2°52.506 20.2726 0.007991 0.044026 -0.005933
2006-08-17 07:10:11 51°15.582 2°52.482 20.3074 0.007991 0.044025 0.027777
2006-08-17 07:10:16 51°15.587 2°52.458 20.3248 0.007991 0.04402 -0.005933
2006-08-17 07:10:21 51°15.592 2°52.434 20.3373 0.007991 0.044016 -0.005933
2006-08-17 07:10:26 51°15.598 2°52.41 20.3699 0.007991 0.044017 -0.005933
2006-08-17 07:10:31 51°15.604 2°52.386 20.3703 0.007991 0.044018 -0.005933
2006-08-17 07:10:36 51°15.609 2°52.362 20.3482 0.007991 0.044018 -0.005933
2006-08-17 07:10:41 51°15.615 2°52.338 20.3487 0.007991 0.044021 -0.005933
2006-08-17 07:10:46 51°15.62 2°52.314 20.3513 0.007991 0.044022 -0.005933
2006-08-17 07:10:51 51°15.625 2°52.29 20.3584 0.007991 0.044022 -0.005933
2006-08-17 07:10:56 51°15.631 2°52.266 20.3654 0.007991 0.044022 -0.005933
2006-08-17 07:11:01 51°15.637 2°52.242 20.3762 0.007991 0.044021 0.027777
2006-08-17 07:11:06 51°15.643 2°52.218 20.3814 0.007991 0.044021 0.027777
2006-08-17 07:11:11 51°15.65 2°52.195 20.3886 0.007991 0.044021 -0.005933
2006-08-17 07:11:16 51°15.657 2°52.171 20.394 0.007991 0.044021 -0.005933
2006-08-17 07:11:21 51°15.663 2°52.148 20.4002 0.007991 0.044023 -0.005933
2006-08-17 07:11:26 51°15.671 2°52.125 20.4031 0.007991 0.044023 -0.005933
2006-08-17 07:11:31 51°15.678 2°52.101 20.4054 0.007991 0.044024 -0.005933
2006-08-17 07:11:36 51°15.685 2°52.078 20.4101 0.007991 0.044024 -0.005933
2006-08-17 07:11:41 51°15.692 2°52.055 20.4156 0.007991 0.044025 -0.005933
2006-08-17 07:11:46 51°15.699 2°52.031 20.4164 0.007991 0.044026 -0.005933
2006-08-17 07:11:51 51°15.706 2°52.008 20.4229 0.007991 0.044026 -0.005933
2006-08-17 07:11:56 51°15.713 2°51.985 20.4217 0.007991 0.044027 0.027777
2006-08-17 07:12:01 51°15.72 2°51.962 20.4296 0.007991 0.044028 -0.005933
2006-08-17 07:12:06 51°15.726 2°51.939 20.4339 0.007991 0.044028 -0.005933
2006-08-17 07:12:11 51°15.732 2°51.915 20.4304 0.007991 0.044029 -0.005933
2006-08-17 07:12:16 51°15.738 2°51.892 20.4299 0.007991 0.044029 -0.005933
2006-08-17 07:12:21 51°15.743 2°51.868 20.4305 0.007991 0.04403 -0.039642
2006-08-17 07:12:26 51°15.748 2°51.844 20.4395 0.007991 0.04403 0.027777
2006-08-17 07:12:30 51°15.753 2°51.825 20.4352 0.007991 0.04403 -0.005933
2006-08-17 07:12:36 51°15.759 2°51.797 20.437 0.007991 0.04403 -0.005933
2006-08-17 07:12:41 51°15.764 2°51.773 20.4386 0.007991 0.044031 -0.005933
2006-08-17 07:12:46 51°15.77 2°51.75 20.4378 0.007991 0.044031 0.027777
2006-08-17 07:12:51 51°15.775 2°51.726 20.4413 0.007991 0.04403 0.027777
2006-08-17 07:12:56 51°15.781 2°51.702 20.4434 0.007991 0.044031 0.027777
2006-08-17 07:13:01 51°15.788 2°51.679 20.4441 0.007991 0.04403 0.027777
2006-08-17 07:13:06 51°15.794 2°51.656 20.4514 0.007991 0.04403 0.027777
2006-08-17 07:13:11 51°15.801 2°51.633 20.4521 0.007991 0.044031 -0.005933
2006-08-17 07:13:16 51°15.808 2°51.61 20.4564 0.007991 0.044032 -0.005933
2006-08-17 07:13:21 51°15.814 2°51.587 20.4633 0.007991 0.044033 -0.005933
2006-08-17 07:13:26 51°15.82 2°51.564 20.464 0.007991 0.044033 -0.005933
2006-08-17 07:13:31 51°15.826 2°51.54 20.4752 0.007991 0.044034 0.027777
2006-08-17 07:13:36 51°15.832 2°51.517 20.4659 0.007991 0.044034 0.027777
2006-08-17 07:13:41 51°15.838 2°51.493 20.4645 0.007991 0.044034 0.027777
2006-08-17 07:13:46 51°15.844 2°51.469 20.4671 0.007991 0.044035 -0.005933
2006-08-17 07:13:51 51°15.849 2°51.446 20.4719 0.007991 0.044035 -0.005933
2006-08-17 07:13:56 51°15.854 2°51.422 20.4777 0.007991 0.044036 -0.039642
2006-08-17 07:14:01 51°15.86 2°51.398 20.4853 0.007991 0.044036 -0.005933
2006-08-17 07:14:06 51°15.865 2°51.374 20.4856 0.007991 0.044036 -0.005933
2006-08-17 07:14:11 51°15.87 2°51.35 20.514 0.007991 0.044036 -0.005933
2006-08-17 07:14:16 51°15.874 2°51.326 20.5372 0.007991 0.044037 -0.005933
2006-08-17 07:14:21 51°15.879 2°51.302 20.5383 0.007991 0.044037 -0.005933
2006-08-17 07:14:26 51°15.883 2°51.278 20.5307 0.007991 0.044039 0.027777
2006-08-17 07:14:31 51°15.888 2°51.254 20.5229 0.007991 0.04404 -0.005933
2006-08-17 07:14:36 51°15.893 2°51.229 20.5228 0.007991 0.04404 -0.005933
2006-08-17 07:14:41 51°15.897 2°51.205 20.5241 0.007991 0.04404 0.027777
2006-08-17 07:14:46 51°15.902 2°51.181 20.527 0.007991 0.04404 -0.005933
2006-08-17 07:14:51 51°15.907 2°51.156 20.5262 0.007991 0.04404 -0.039642
2006-08-17 07:14:56 51°15.912 2°51.132 20.5349 0.007991 0.04404 -0.005933
2006-08-17 07:15:01 51°15.916 2°51.108 20.5316 0.007991 0.04404 0.027777
2006-08-17 07:15:05 51°15.92 2°51.089 20.5417 0.007991 0.04404 0.027777
2006-08-17 07:15:11 51°15.926 2°51.06 20.5517 0.007991 0.044042 -0.005933
2006-08-17 07:15:16 51°15.93 2°51.035 20.544 0.007991 0.044042 -0.005933
2006-08-17 07:15:21 51°15.934 2°51.011 20.5534 0.007991 0.044042 -0.005933
2006-08-17 07:15:26 51°15.939 2°50.987 20.5457 0.007991 0.044042 -0.005933
2006-08-17 07:15:31 51°15.943 2°50.962 20.5408 0.007991 0.044042 -0.005933
2006-08-17 07:15:36 51°15.948 2°50.938 20.5515 0.007991 0.044042 -0.005933
2006-08-17 07:15:41 51°15.952 2°50.914 20.5601 0.007991 0.044042 -0.005933
2006-08-17 07:15:46 51°15.957 2°50.89 20.5697 0.007991 0.044043 0.027777
2006-08-17 07:15:51 51°15.961 2°50.865 20.5737 0.007991 0.044043 0.027777
2006-08-17 07:15:56 51°15.966 2°50.842 20.5784 0.007991 0.044043 -0.005933
2006-08-17 07:16:01 51°15.971 2°50.817 20.5717 0.007991 0.044043 -0.005933
2006-08-17 07:16:06 51°15.975 2°50.793 20.5752 0.007991 0.044043 -0.005933
2006-08-17 07:16:11 51°15.98 2°50.769 20.5831 0.007991 0.044044 -0.005933
2006-08-17 07:16:16 51°15.984 2°50.745 20.5809 0.007991 0.044045 -0.005933
2006-08-17 07:16:21 51°15.988 2°50.721 20.5764 0.007991 0.044045 0.027777
2006-08-17 07:16:26 51°15.992 2°50.696 20.5882 0.007991 0.044045 0.027777
2006-08-17 07:16:31 51°15.996 2°50.672 20.5762 0.007991 0.044045 0.027777
2006-08-17 07:16:36 51°16.001 2°50.647 20.5922 0.007991 0.044045 0.027777
2006-08-17 07:16:41 51°16.005 2°50.623 20.5993 0.007991 0.044045 -0.005933
2006-08-17 07:16:46 51°16.009 2°50.599 20.6012 0.007991 0.044046 -0.005933
2006-08-17 07:16:51 51°16.013 2°50.574 20.6169 0.007991 0.044046 -0.005933
2006-08-17 07:16:56 51°16.017 2°50.55 20.6183 0.007991 0.044046 -0.005933
2006-08-17 07:17:01 51°16.021 2°50.526 20.6074 0.007991 0.044046 0.027777
2006-08-17 07:17:06 51°16.025 2°50.501 20.6243 0.007991 0.044046 0.027777
2006-08-17 07:17:11 51°16.029 2°50.477 20.6402 0.007991 0.044047 -0.005933
2006-08-17 07:17:16 51°16.032 2°50.452 20.6633 0.007991 0.044047 0.027777
2006-08-17 07:17:21 51°16.035 2°50.427 20.6654 0.007991 0.044048 -0.005933
2006-08-17 07:17:26 51°16.038 2°50.403 20.6663 0.007991 0.044048 -0.005933
2006-08-17 07:17:31 51°16.041 2°50.378 20.6675 0.007991 0.044049 -0.005933
2006-08-17 07:17:36 51°16.043 2°50.353 20.6536 0.007991 0.044049 -0.005933
2006-08-17 07:17:41 51°16.047 2°50.328 20.6238 0.007991 0.044049 -0.005933
2006-08-17 07:17:46 51°16.05 2°50.303 20.6362 0.007991 0.044049 -0.005933
2006-08-17 07:17:51 51°16.054 2°50.279 20.6458 0.007991 0.044049 -0.005933
2006-08-17 07:17:56 51°16.058 2°50.254 20.6636 0.007991 0.044049 0.027777
2006-08-17 07:18:01 51°16.062 2°50.229 20.673 0.007991 0.04405 0.027777
2006-08-17 07:18:06 51°16.067 2°50.205 20.6733 0.007991 0.04405 0.027777
2006-08-17 07:18:11 51°16.071 2°50.18 20.6738 0.007991 0.04405 -0.005933
2006-08-17 07:18:16 51°16.075 2°50.155 20.6717 0.007991 0.04405 -0.005933
2006-08-17 07:18:21 51°16.079 2°50.131 20.6672 0.007991 0.044051 -0.005933
2006-08-17 07:18:26 51°16.083 2°50.107 20.6678 0.007991 0.044051 -0.005933
2006-08-17 07:18:31 51°16.087 2°50.082 20.6642 0.007991 0.044051 -0.005933
2006-08-17 07:18:36 51°16.092 2°50.058 20.6547 0.007991 0.044051 -0.005933
2006-08-17 07:18:41 51°16.096 2°50.033 20.7006 0.007991 0.044052 -0.005933
2006-08-17 07:18:46 51°16.1 2°50.009 20.696 0.007991 0.044052 -0.005933
2006-08-17 07:18:51 51°16.104 2°49.985 20.7242 0.007991 0.044052 0.027777
2006-08-17 07:18:56 51°16.109 2°49.961 20.7171 0.007991 0.044053 0.027777
2006-08-17 07:19:01 51°16.113 2°49.936 20.7332 0.007991 0.044053 0.027777
2006-08-17 07:19:06 51°16.117 2°49.912 20.6887 0.007991 0.044053 0.027777
2006-08-17 07:19:11 51°16.121 2°49.887 20.7368 0.007991 0.044054 0.027777
2006-08-17 07:19:16 51°16.125 2°49.863 20.7047 0.007991 0.044054 -0.005933
2006-08-17 07:19:21 51°16.129 2°49.839 20.7125 0.007991 0.044055 -0.005933
2006-08-17 07:19:26 51°16.133 2°49.814 20.6689 0.007991 0.044055 0.027777
2006-08-17 07:19:31 51°16.137 2°49.79 20.7099 0.007991 0.044055 -0.005933
2006-08-17 07:19:36 51°16.141 2°49.765 20.7097 0.007991 0.044055 -0.005933
2006-08-17 07:19:41 51°16.145 2°49.741 20.698 0.007991 0.044055 -0.005933
2006-08-17 07:19:46 51°16.149 2°49.716 20.7196 0.007991 0.044056 -0.005933
2006-08-17 07:19:51 51°16.153 2°49.692 20.7196 0.007991 0.044056 0.027777
2006-08-17 07:19:56 51°16.157 2°49.667 20.7417 0.007991 0.044057 0.027777
2006-08-17 07:20:01 51°16.16 2°49.643 20.721 0.007991 0.044057 -0.005933
2006-08-17 07:20:06 51°16.164 2°49.619 20.7197 0.007991 0.044057 -0.005933
2006-08-17 07:20:11 51°16.169 2°49.594 20.7403 0.007991 0.044058 0.027777
2006-08-17 07:20:16 51°16.173 2°49.569 20.7701 0.007991 0.044058 0.027777
2006-08-17 07:20:21 51°16.176 2°49.545 20.7682 0.007991 0.044058 0.027777
2006-08-17 07:20:26 51°16.179 2°49.52 20.7603 0.007991 0.044059 -0.005933
2006-08-17 07:20:31 51°16.182 2°49.496 20.794 0.007991 0.04406 0.027777
2006-08-17 07:20:36 51°16.185 2°49.471 20.793 0.007991 0.04406 0.027777
2006-08-17 07:20:41 51°16.188 2°49.447 20.7849 0.007991 0.04406 -0.005933
2006-08-17 07:20:46 51°16.19 2°49.422 20.7899 0.007991 0.044061 0.027777
2006-08-17 07:20:51 51°16.193 2°49.397 20.7928 0.007991 0.044061 -0.005933
2006-08-17 07:20:56 51°16.197 2°49.373 20.7844 0.007991 0.044061 -0.005933
2006-08-17 07:21:01 51°16.201 2°49.348 20.8058 0.007991 0.044062 -0.005933
2006-08-17 07:21:06 51°16.206 2°49.323 20.8125 0.007991 0.044062 -0.005933
2006-08-17 07:21:11 51°16.21 2°49.299 20.8203 0.007991 0.044062 0.027777
2006-08-17 07:21:16 51°16.215 2°49.275 20.8149 0.007991 0.044062 0.027777
2006-08-17 07:21:21 51°16.221 2°49.251 20.8145 0.007991 0.044063 0.027777
2006-08-17 07:21:26 51°16.226 2°49.227 20.7531 0.007991 0.044064 0.027777
2006-08-17 07:21:31 51°16.232 2°49.203 20.7525 0.007991 0.044065 -0.005933
2006-08-17 07:21:36 51°16.236 2°49.179 20.7954 0.007991 0.044065 -0.005933
2006-08-17 07:21:41 51°16.241 2°49.156 20.7702 0.007991 0.044065 0.027777
2006-08-17 07:21:46 51°16.245 2°49.132 20.8097 0.007991 0.044066 -0.005933
2006-08-17 07:21:51 51°16.249 2°49.108 20.8132 0.007991 0.044065 0.027777
2006-08-17 07:21:56 51°16.253 2°49.084 20.8352 0.007991 0.044066 0.027777
2006-08-17 07:22:01 51°16.257 2°49.061 20.8289 0.007991 0.044066 0.027777
2006-08-17 07:22:06 51°16.262 2°49.037 20.8433 0.007991 0.044066 0.027777
2006-08-17 07:22:11 51°16.265 2°49.013 20.8448 0.007991 0.044067 -0.005933
2006-08-17 07:22:16 51°16.269 2°48.99 20.8465 0.007991 0.044067 0.027777
2006-08-17 07:22:21 51°16.272 2°48.966 20.857 0.007991 0.044067 -0.005933
2006-08-17 07:22:26 51°16.275 2°48.942 20.8635 0.007991 0.044068 0.027777
2006-08-17 07:22:31 51°16.278 2°48.918 20.8522 0.007991 0.044068 0.027777
2006-08-17 07:22:36 51°16.281 2°48.894 20.8408 0.007991 0.044068 0.027777
2006-08-17 07:22:41 51°16.284 2°48.87 20.8257 0.007991 0.044069 0.027777
2006-08-17 07:22:46 51°16.287 2°48.846 20.8583 0.007991 0.044069 0.027777
2006-08-17 07:22:51 51°16.289 2°48.822 20.8264 0.007991 0.04407 0.027777
2006-08-17 07:22:55 51°16.292 2°48.803 20.8687 0.007991 0.04407 -0.005933
2006-08-17 07:23:01 51°16.296 2°48.775 20.8509 0.007991 0.044071 0.027777
2006-08-17 07:23:06 51°16.299 2°48.751 20.8655 0.007991 0.044071 0.027777
2006-08-17 07:23:11 51°16.303 2°48.727 20.8617 0.007991 0.044071 0.027777
2006-08-17 07:23:16 51°16.307 2°48.704 20.8554 0.007991 0.044071 -0.005933
2006-08-17 07:23:21 51°16.311 2°48.68 20.8803 0.007991 0.044072 -0.005933
2006-08-17 07:23:26 51°16.316 2°48.656 20.8789 0.007991 0.044072 -0.005933
2006-08-17 07:23:31 51°16.32 2°48.633 20.8613 0.007991 0.044073 0.027777
2006-08-17 07:23:36 51°16.325 2°48.609 20.881 0.007991 0.044073 0.027777
2006-08-17 07:23:41 51°16.33 2°48.585 20.8641 0.007991 0.044073 0.027777
2006-08-17 07:23:46 51°16.335 2°48.562 20.8916 0.007991 0.044074 0.027777
2006-08-17 07:23:51 51°16.34 2°48.538 20.9081 0.007991 0.044074 -0.005933
2006-08-17 07:23:56 51°16.344 2°48.515 20.9026 0.007991 0.044075 -0.005933
2006-08-17 07:24:01 51°16.349 2°48.491 20.9077 0.007991 0.044075 -0.005933
2006-08-17 07:24:06 51°16.353 2°48.468 20.9208 0.007991 0.044075 -0.005933
2006-08-17 07:24:11 51°16.358 2°48.444 20.9286 0.007991 0.044076 -0.005933
2006-08-17 07:24:16 51°16.362 2°48.42 20.9334 0.007991 0.044076 0.027777
2006-08-17 07:24:21 51°16.365 2°48.396 20.9301 0.007991 0.044077 -0.005933
2006-08-17 07:24:26 51°16.369 2°48.372 20.9197 0.007991 0.044077 -0.005933
2006-08-17 07:24:31 51°16.372 2°48.348 20.9368 0.007991 0.044077 0.027777
2006-08-17 07:24:36 51°16.375 2°48.324 20.9017 0.007991 0.044077 0.027777
2006-08-17 07:24:41 51°16.379 2°48.301 20.9379 0.007991 0.044078 0.027777
2006-08-17 07:24:46 51°16.381 2°48.277 20.9394 0.007991 0.044078 0.027777
2006-08-17 07:24:51 51°16.385 2°48.253 20.92 0.007991 0.044078 0.027777
2006-08-17 07:24:56 51°16.388 2°48.229 20.9265 0.007991 0.044079 0.027777
2006-08-17 07:25:01 51°16.391 2°48.205 20.8725 0.007991 0.044079 -0.005933
2006-08-17 07:25:06 51°16.395 2°48.181 20.9157 0.007991 0.044079 -0.005933
2006-08-17 07:25:11 51°16.399 2°48.157 20.9008 0.007991 0.04408 -0.005933
2006-08-17 07:25:16 51°16.403 2°48.133 20.946 0.007991 0.04408 -0.005933
2006-08-17 07:25:21 51°16.407 2°48.11 20.915 0.007991 0.04408 -0.005933
2006-08-17 07:25:26 51°16.413 2°48.086 20.9421 0.007991 0.044081 -0.005933
2006-08-17 07:25:31 51°16.418 2°48.063 20.9619 0.007991 0.044081 -0.005933
2006-08-17 07:25:36 51°16.423 2°48.039 20.9734 0.007991 0.044081 -0.005933
2006-08-17 07:25:41 51°16.428 2°48.016 20.9753 0.007991 0.044082 -0.005933
2006-08-17 07:25:46 51°16.433 2°47.992 20.9732 0.007991 0.044082 0.027777
2006-08-17 07:25:51 51°16.438 2°47.969 20.9741 0.007991 0.044083 -0.005933
2006-08-17 07:25:56 51°16.442 2°47.945 20.9948 0.007991 0.044083 0.027777
2006-08-17 07:26:01 51°16.447 2°47.922 20.9403 0.007991 0.044084 0.027777
2006-08-17 07:26:06 51°16.452 2°47.898 20.984 0.007991 0.044084 0.027777
2006-08-17 07:26:11 51°16.456 2°47.874 20.9628 0.007991 0.044084 -0.005933
2006-08-17 07:26:16 51°16.461 2°47.85 20.9924 0.007991 0.044085 0.027777
2006-08-17 07:26:21 51°16.466 2°47.826 20.9672 0.007991 0.044085 -0.005933
2006-08-17 07:26:26 51°16.47 2°47.803 20.9834 0.007991 0.044085 0.027777
2006-08-17 07:26:31 51°16.475 2°47.779 20.9788 0.007991 0.044086 0.027777
2006-08-17 07:26:36 51°16.48 2°47.755 21.0295 0.007991 0.044086 0.027777
2006-08-17 07:26:41 51°16.485 2°47.732 21.0078 0.007991 0.044086 -0.005933
2006-08-17 07:26:46 51°16.489 2°47.708 21.0174 0.007991 0.044087 0.027777
2006-08-17 07:26:51 51°16.494 2°47.684 21.0212 0.007991 0.044087 0.027777
2006-08-17 07:26:56 51°16.499 2°47.66 21.0164 0.007991 0.044088 -0.005933
2006-08-17 07:27:01 51°16.503 2°47.636 21.0045 0.007991 0.044088 -0.005933
2006-08-17 07:27:06 51°16.508 2°47.612 21.0572 0.007991 0.044088 -0.005933
2006-08-17 07:27:10 51°16.511 2°47.593 21.056 0.007991 0.044089 0.027777
2006-08-17 07:27:16 51°16.516 2°47.565 21.0683 0.007991 0.044088 -0.005933
2006-08-17 07:27:21 51°16.52 2°47.54 21.0351 0.007991 0.04409 -0.005933
2006-08-17 07:27:26 51°16.523 2°47.516 21.0181 0.007991 0.04409 -0.005933
2006-08-17 07:27:30 51°16.526 2°47.497 21.0253 0.007991 0.044091 0.027777
2006-08-17 07:27:36 51°16.531 2°47.468 21.0412 0.007991 0.044091 0.027777
2006-08-17 07:27:41 51°16.535 2°47.444 21.0076 0.007991 0.044091 -0.005933
2006-08-17 07:27:46 51°16.54 2°47.421 21.0612 0.007991 0.044091 -0.005933
2006-08-17 07:27:51 51°16.545 2°47.397 21.0306 0.007991 0.044091 -0.005933
2006-08-17 07:27:56 51°16.551 2°47.373 21.0268 0.007991 0.044092 0.027777
2006-08-17 07:28:01 51°16.556 2°47.349 21.0732 0.007991 0.044093 -0.005933
2006-08-17 07:28:06 51°16.561 2°47.326 21.0702 0.007991 0.044093 -0.005933
2006-08-17 07:28:11 51°16.566 2°47.302 21.0771 0.007991 0.044093 -0.005933
2006-08-17 07:28:16 51°16.571 2°47.278 21.0451 0.007991 0.044093 -0.005933
2006-08-17 07:28:20 51°16.575 2°47.259 21.0878 0.007991 0.044094 -0.005933
2006-08-17 07:28:26 51°16.581 2°47.23 21.045 0.007991 0.044094 -0.005933
2006-08-17 07:28:31 51°16.586 2°47.206 21.1053 0.007991 0.044095 -0.005933
2006-08-17 07:28:36 51°16.591 2°47.182 21.105 0.007991 0.044095 -0.005933
2006-08-17 07:28:41 51°16.597 2°47.158 21.0467 0.007991 0.044095 0.027777
2006-08-17 07:28:46 51°16.602 2°47.134 21.0483 0.007991 0.044096 0.027777
2006-08-17 07:28:51 51°16.608 2°47.11 21.0933 0.007991 0.044096 0.027777
2006-08-17 07:28:56 51°16.613 2°47.087 21.1258 0.007991 0.044096 -0.005933
2006-08-17 07:29:01 51°16.619 2°47.062 21.1419 0.007991 0.044097 0.027777
2006-08-17 07:29:06 51°16.624 2°47.038 21.1083 0.007991 0.044097 0.027777
2006-08-17 07:29:11 51°16.629 2°47.014 21.0913 0.007991 0.044098 -0.005933
2006-08-17 07:29:16 51°16.634 2°46.99 21.0848 0.007991 0.044093 -0.005933
2006-08-17 07:29:21 51°16.64 2°46.966 21.0894 0.007991 0.044094 0.027777
2006-08-17 07:29:26 51°16.645 2°46.942 21.0948 0.007991 0.044093 -0.005933
2006-08-17 07:29:31 51°16.65 2°46.917 21.1006 0.007991 0.044092 -0.005933
2006-08-17 07:29:35 51°16.654 2°46.898 21.1085 0.007991 0.044092 -0.005933
2006-08-17 07:29:41 51°16.66 2°46.869 21.1105 0.007991 0.044093 -0.005933
2006-08-17 07:29:46 51°16.665 2°46.845 21.1127 0.007991 0.044097 -0.005933
2006-08-17 07:29:51 51°16.67 2°46.821 21.1149 0.007991 0.044097 -0.005933
2006-08-17 07:29:56 51°16.675 2°46.797 21.1264 0.007991 0.044099 -0.005933
2006-08-17 07:30:01 51°16.68 2°46.772 21.1278 0.007991 0.044099 0.027777
2006-08-17 07:30:06 51°16.686 2°46.748 21.131 0.007991 0.044099 0.027777
2006-08-17 07:30:11 51°16.691 2°46.724 21.1302 0.007991 0.0441 0.027777
2006-08-17 07:30:16 51°16.696 2°46.7 21.1382 0.007991 0.044102 0.027777
2006-08-17 07:30:21 51°16.701 2°46.676 21.1435 0.007991 0.044103 -0.005933
2006-08-17 07:30:26 51°16.707 2°46.652 21.1518 0.007991 0.044103 -0.005933
2006-08-17 07:30:31 51°16.712 2°46.629 21.1578 0.007991 0.044104 0.027777
2006-08-17 07:30:36 51°16.717 2°46.605 21.1581 0.007991 0.044104 0.027777
2006-08-17 07:30:41 51°16.722 2°46.581 21.1714 0.007991 0.044105 0.027777
2006-08-17 07:30:46 51°16.726 2°46.557 21.1696 0.007991 0.044106 -0.005933
2006-08-17 07:30:50 51°16.73 2°46.537 21.1742 0.007991 0.044108 -0.005933
2006-08-17 07:30:56 51°16.737 2°46.508 21.1629 0.007991 0.044108 0.027777
2006-08-17 07:31:01 51°16.744 2°46.485 21.1661 0.007991 0.044108 0.027777
2006-08-17 07:31:06 51°16.751 2°46.461 21.1739 0.007991 0.044108 0.027777
2006-08-17 07:31:10 51°16.756 2°46.443 21.1801 0.007991 0.044108 -0.005933
2006-08-17 07:31:16 51°16.765 2°46.415 21.1804 0.007991 0.044108 -0.005933
2006-08-17 07:31:21 51°16.773 2°46.392 21.1864 0.007991 0.044108 0.027777
2006-08-17 07:31:26 51°16.78 2°46.369 21.1957 0.007991 0.044108 0.027777
2006-08-17 07:31:31 51°16.788 2°46.346 21.1902 0.007991 0.044109 -0.005933
2006-08-17 07:31:36 51°16.795 2°46.323 21.1936 0.007991 0.044109 -0.005933
2006-08-17 07:31:41 51°16.803 2°46.3 21.2038 0.007991 0.044109 -0.005933
2006-08-17 07:31:46 51°16.81 2°46.277 21.1977 0.007991 0.044109 0.027777
2006-08-17 07:31:51 51°16.818 2°46.254 21.2079 0.007991 0.04411 -0.005933
2006-08-17 07:31:56 51°16.825 2°46.23 21.2042 0.007991 0.04411 0.027777
2006-08-17 07:32:01 51°16.833 2°46.207 21.2161 0.007991 0.044111 -0.005933
2006-08-17 07:32:06 51°16.84 2°46.184 21.211 0.007991 0.044111 -0.005933
2006-08-17 07:32:10 51°16.846 2°46.165 21.2258 0.007991 0.044111 0.027777
2006-08-17 07:32:16 51°16.855 2°46.137 21.2324 0.007991 0.044111 -0.039642
2006-08-17 07:32:21 51°16.863 2°46.114 21.2311 0.007991 0.044112 -0.005933
2006-08-17 07:32:26 51°16.87 2°46.09 21.2327 0.007991 0.044112 -0.005933
2006-08-17 07:32:31 51°16.877 2°46.067 21.2346 0.007991 0.044112 -0.005933
2006-08-17 07:32:36 51°16.884 2°46.043 21.2379 0.007991 0.044112 -0.005933
2006-08-17 07:32:41 51°16.891 2°46.019 21.2415 0.007991 0.044113 0.027777
2006-08-17 07:32:46 51°16.899 2°45.996 21.2549 0.007991 0.044113 0.027777
2006-08-17 07:32:51 51°16.906 2°45.972 21.2781 0.007991 0.044114 -0.005933
2006-08-17 07:32:56 51°16.913 2°45.948 21.2749 0.007991 0.044114 0.027777
2006-08-17 07:33:01 51°16.92 2°45.925 21.2883 0.007991 0.044115 -0.005933
2006-08-17 07:33:06 51°16.928 2°45.901 21.2913 0.007991 0.044115 -0.005933
2006-08-17 07:33:11 51°16.935 2°45.877 21.2812 0.007991 0.044116 0.027777
2006-08-17 07:33:16 51°16.942 2°45.854 21.2904 0.007991 0.044115 0.027777
2006-08-17 07:33:21 51°16.95 2°45.83 21.2836 0.007991 0.044115 0.027777
2006-08-17 07:33:26 51°16.957 2°45.807 21.2778 0.007991 0.044115 -0.005933
2006-08-17 07:33:30 51°16.963 2°45.788 21.2886 0.007991 0.044116 0.027777
2006-08-17 07:33:36 51°16.973 2°45.76 21.2888 0.007991 0.044116 0.027777
2006-08-17 07:33:41 51°16.98 2°45.737 21.3092 0.007991 0.044117 -0.005933
2006-08-17 07:33:46 51°16.988 2°45.713 21.3205 0.007991 0.044117 -0.005933
2006-08-17 07:33:51 51°16.996 2°45.69 21.2997 0.007991 0.044118 0.027777
2006-08-17 07:33:56 51°17.004 2°45.667 21.3224 0.007991 0.044118 -0.005933
2006-08-17 07:34:01 51°17.012 2°45.644 21.3222 0.007991 0.044119 -0.005933
2006-08-17 07:34:06 51°17.02 2°45.621 21.3209 0.007991 0.044119 -0.005933
2006-08-17 07:34:11 51°17.028 2°45.597 21.3421 0.007991 0.04412 -0.005933
2006-08-17 07:34:16 51°17.036 2°45.574 21.3474 0.007991 0.04412 0.027777
2006-08-17 07:34:21 51°17.043 2°45.55 21.3268 0.007991 0.04412 0.027777
2006-08-17 07:34:26 51°17.051 2°45.527 21.3452 0.007991 0.044122 0.027777
2006-08-17 07:34:31 51°17.059 2°45.503 21.3643 0.007991 0.044122 -0.005933
2006-08-17 07:34:36 51°17.066 2°45.48 21.3645 0.007991 0.044122 -0.005933
2006-08-17 07:34:41 51°17.074 2°45.456 21.3628 0.007991 0.044122 -0.005933
2006-08-17 07:34:46 51°17.082 2°45.433 21.3541 0.007991 0.044123 0.027777
2006-08-17 07:34:51 51°17.09 2°45.41 21.348 0.007991 0.044124 -0.005933
2006-08-17 07:34:56 51°17.097 2°45.386 21.3709 0.007991 0.044125 -0.005933
2006-08-17 07:35:01 51°17.105 2°45.363 21.3864 0.007991 0.044125 0.027777
2006-08-17 07:35:06 51°17.113 2°45.34 21.3847 0.007991 0.044125 0.027777
2006-08-17 07:35:11 51°17.121 2°45.317 21.3838 0.007991 0.044126 -0.005933
2006-08-17 07:35:16 51°17.128 2°45.293 21.3634 0.007991 0.044124 -0.039642
2006-08-17 07:35:21 51°17.136 2°45.27 21.3835 0.007991 0.044125 -0.005933
2006-08-17 07:35:26 51°17.144 2°45.247 21.3559 0.007991 0.044125 0.027777
2006-08-17 07:35:30 51°17.15 2°45.228 21.3931 0.007991 0.044126 0.027777
2006-08-17 07:35:36 51°17.159 2°45.201 21.4078 0.007991 0.044126 0.027777
2006-08-17 07:35:41 51°17.167 2°45.177 21.3939 0.007991 0.044127 0.027777
2006-08-17 07:35:46 51°17.175 2°45.155 21.3987 0.007991 0.044128 -0.005933
2006-08-17 07:35:51 51°17.183 2°45.132 21.4246 0.007991 0.044129 -0.005933
2006-08-17 07:35:56 51°17.191 2°45.109 21.424 0.007991 0.044129 0.027777
2006-08-17 07:36:01 51°17.199 2°45.086 21.4177 0.007991 0.044131 0.027777
2006-08-17 07:36:06 51°17.206 2°45.064 21.4229 0.007991 0.044131 0.027777
2006-08-17 07:36:11 51°17.214 2°45.041 21.427 0.007991 0.044131 -0.005933
2006-08-17 07:36:16 51°17.222 2°45.018 21.4226 0.007991 0.044132 -0.005933
2006-08-17 07:36:21 51°17.229 2°44.995 21.4335 0.007991 0.044132 -0.005933
2006-08-17 07:36:26 51°17.237 2°44.972 21.4356 0.007991 0.044133 -0.005933
2006-08-17 07:36:30 51°17.243 2°44.954 21.4367 0.007991 0.044133 -0.005933
2006-08-17 07:36:36 51°17.252 2°44.926 21.4229 0.007991 0.044133 -0.005933
2006-08-17 07:36:41 51°17.259 2°44.903 21.447 0.007991 0.044134 0.027777
2006-08-17 07:36:46 51°17.266 2°44.88 21.4581 0.007991 0.044134 -0.005933
2006-08-17 07:36:51 51°17.273 2°44.857 21.3549 0.007991 0.044135 -0.005933
2006-08-17 07:36:56 51°17.281 2°44.835 21.3537 0.007991 0.044135 -0.039642
2006-08-17 07:37:01 51°17.288 2°44.811 21.3198 0.007991 0.044135 0.027777
2006-08-17 07:37:06 51°17.295 2°44.789 21.3452 0.007991 0.044135 0.027777
2006-08-17 07:37:11 51°17.303 2°44.766 21.3555 0.007991 0.044135 0.027777
2006-08-17 07:37:16 51°17.31 2°44.743 21.3707 0.007991 0.044136 0.027777
2006-08-17 07:37:20 51°17.316 2°44.724 21.3798 0.007991 0.044137 -0.005933
2006-08-17 07:37:26 51°17.325 2°44.697 21.4597 0.007991 0.044137 0.027777
2006-08-17 07:37:31 51°17.333 2°44.674 21.4174 0.007991 0.044137 -0.005933
2006-08-17 07:37:36 51°17.341 2°44.651 21.3798 0.007991 0.044137 -0.005933
2006-08-17 07:37:41 51°17.348 2°44.628 21.4083 0.007991 0.044138 0.027777
2006-08-17 07:37:46 51°17.356 2°44.606 21.4052 0.007991 0.044138 0.027777
2006-08-17 07:37:51 51°17.364 2°44.583 21.4131 0.007991 0.044138 -0.005933
2006-08-17 07:37:55 51°17.37 2°44.565 21.4309 0.007991 0.044139 -0.005933
2006-08-17 07:38:01 51°17.38 2°44.537 21.4447 0.007991 0.044139 -0.005933
2006-08-17 07:38:06 51°17.387 2°44.514 21.5298 0.007991 0.044139 -0.005933
2006-08-17 07:38:11 51°17.394 2°44.491 21.5477 0.007991 0.04414 0.027777
2006-08-17 07:38:16 51°17.402 2°44.468 21.5551 0.007991 0.044141 -0.005933
2006-08-17 07:38:21 51°17.409 2°44.444 21.5547 0.007991 0.044141 0.027777
2006-08-17 07:38:26 51°17.416 2°44.421 21.5507 0.007991 0.044141 -0.005933
2006-08-17 07:38:31 51°17.424 2°44.397 21.5585 0.007991 0.044142 -0.005933
2006-08-17 07:38:36 51°17.431 2°44.374 21.5492 0.007991 0.044142 -0.005933
2006-08-17 07:38:41 51°17.439 2°44.351 21.531 0.007991 0.044142 -0.039642
2006-08-17 07:38:46 51°17.446 2°44.328 21.5659 0.007991 0.044143 -0.005933
2006-08-17 07:38:51 51°17.454 2°44.305 21.5616 0.007991 0.044143 -0.005933
2006-08-17 07:38:56 51°17.462 2°44.282 21.5659 0.007991 0.044143 0.027777
2006-08-17 07:39:01 51°17.469 2°44.259 21.5667 0.007991 0.044144 -0.005933
2006-08-17 07:39:06 51°17.476 2°44.235 21.5669 0.007991 0.044144 -0.005933
2006-08-17 07:39:11 51°17.484 2°44.212 21.5732 0.007991 0.044144 0.027777
2006-08-17 07:39:15 51°17.49 2°44.193 21.5728 0.007991 0.044145 0.027777
2006-08-17 07:39:21 51°17.499 2°44.165 21.5737 0.007991 0.044145 -0.005933
2006-08-17 07:39:26 51°17.506 2°44.142 21.5861 0.007991 0.044145 -0.005933
2006-08-17 07:39:31 51°17.513 2°44.119 21.5631 0.007991 0.044146 -0.005933
2006-08-17 07:39:36 51°17.521 2°44.096 21.572 0.007991 0.044146 -0.005933
2006-08-17 07:39:41 51°17.528 2°44.072 21.5705 0.007991 0.044146 -0.005933
2006-08-17 07:39:46 51°17.535 2°44.049 21.5738 0.007991 0.044146 -0.005933
2006-08-17 07:39:51 51°17.543 2°44.025 21.5766 0.007991 0.044147 0.027777
2006-08-17 07:39:56 51°17.551 2°44.003 21.5775 0.007991 0.044147 -0.005933
2006-08-17 07:40:01 51°17.559 2°43.98 21.5462 0.007991 0.044148 -0.005933
2006-08-17 07:40:06 51°17.566 2°43.956 21.5111 0.007991 0.044148 -0.005933
2006-08-17 07:40:11 51°17.574 2°43.933 21.537 0.007991 0.044148 -0.005933
2006-08-17 07:40:16 51°17.582 2°43.91 21.5088 0.007991 0.044148 0.027777
2006-08-17 07:40:21 51°17.589 2°43.887 21.5445 0.007991 0.044149 -0.005933
2006-08-17 07:40:26 51°17.597 2°43.864 21.6198 0.007991 0.044149 -0.005933
2006-08-17 07:40:30 51°17.603 2°43.846 21.6003 0.007991 0.044149 -0.005933
2006-08-17 07:40:36 51°17.611 2°43.818 21.6206 0.007991 0.044149 -0.005933
2006-08-17 07:40:41 51°17.618 2°43.794 21.5102 0.007991 0.044149 -0.005933
2006-08-17 07:40:46 51°17.625 2°43.771 21.4826 0.007991 0.04415 -0.005933
2006-08-17 07:40:51 51°17.631 2°43.747 21.5038 0.007991 0.044151 -0.005933
2006-08-17 07:40:56 51°17.638 2°43.724 21.4399 0.007991 0.044151 -0.005933
2006-08-17 07:41:01 51°17.645 2°43.7 21.5043 0.007991 0.044152 0.027777
2006-08-17 07:41:06 51°17.652 2°43.677 21.4358 0.007991 0.044152 0.027777
2006-08-17 07:41:11 51°17.659 2°43.654 21.498 0.007991 0.044152 -0.005933
2006-08-17 07:41:16 51°17.667 2°43.631 21.5199 0.007991 0.044152 -0.005933
2006-08-17 07:41:21 51°17.675 2°43.608 21.4861 0.007991 0.044152 -0.005933
2006-08-17 07:41:26 51°17.682 2°43.586 21.5117 0.007991 0.044153 -0.005933
2006-08-17 07:41:30 51°17.688 2°43.567 21.5928 0.007991 0.044154 0.027777
2006-08-17 07:41:36 51°17.698 2°43.54 21.5258 0.007991 0.044154 0.027777
2006-08-17 07:41:41 51°17.705 2°43.517 21.5449 0.007991 0.044154 0.027777
2006-08-17 07:41:46 51°17.713 2°43.494 21.5562 0.007991 0.044154 -0.005933
2006-08-17 07:41:50 51°17.719 2°43.476 21.5746 0.007991 0.044155 -0.039642
2006-08-17 07:41:56 51°17.729 2°43.449 21.5625 0.007991 0.044155 0.027777
2006-08-17 07:42:01 51°17.737 2°43.427 21.5611 0.007991 0.044156 0.027777
2006-08-17 07:42:06 51°17.745 2°43.405 21.5563 0.007991 0.044156 0.027777
2006-08-17 07:42:11 51°17.754 2°43.383 21.6244 0.007991 0.044156 -0.005933
2006-08-17 07:42:16 51°17.762 2°43.361 21.5538 0.007991 0.044156 0.027777
2006-08-17 07:42:21 51°17.77 2°43.338 21.6263 0.007991 0.044157 0.027777
2006-08-17 07:42:26 51°17.778 2°43.316 21.5606 0.007991 0.044157 -0.005933
2006-08-17 07:42:31 51°17.787 2°43.294 21.6446 0.007991 0.044157 -0.005933
2006-08-17 07:42:35 51°17.793 2°43.276 21.5912 0.007991 0.044157 -0.005933
2006-08-17 07:42:41 51°17.804 2°43.25 21.6709 0.007991 0.044158 -0.005933
2006-08-17 07:42:46 51°17.812 2°43.228 21.6821 0.007991 0.044158 -0.005933
2006-08-17 07:42:51 51°17.821 2°43.206 21.7216 0.007991 0.044158 0.027777
2006-08-17 07:42:56 51°17.829 2°43.183 21.6236 0.007991 0.044159 -0.005933
2006-08-17 07:43:01 51°17.838 2°43.161 21.5804 0.007991 0.044159 -0.005933
2006-08-17 07:43:06 51°17.846 2°43.139 21.6008 0.007991 0.044159 -0.005933
2006-08-17 07:43:11 51°17.855 2°43.116 21.6135 0.007991 0.04416 -0.005933
2006-08-17 07:43:16 51°17.863 2°43.094 21.6175 0.007991 0.044159 -0.005933
2006-08-17 07:43:21 51°17.872 2°43.071 21.6302 0.007991 0.04416 -0.005933
2006-08-17 07:43:26 51°17.88 2°43.049 21.5994 0.007991 0.04416 0.027777
2006-08-17 07:43:31 51°17.889 2°43.026 21.657 0.007991 0.04416 0.027777
2006-08-17 07:43:36 51°17.898 2°43.004 21.6241 0.007991 0.04416 0.027777
2006-08-17 07:43:41 51°17.906 2°42.981 21.6727 0.007991 0.044161 -0.005933
2006-08-17 07:43:46 51°17.915 2°42.958 21.6544 0.007991 0.044161 0.027777
2006-08-17 07:43:50 51°17.922 2°42.94 21.6391 0.007991 0.044161 0.027777
2006-08-17 07:43:56 51°17.932 2°42.913 21.6144 0.007991 0.044161 -0.005933
2006-08-17 07:44:01 51°17.941 2°42.89 21.666 0.007991 0.044162 -0.005933
2006-08-17 07:44:06 51°17.95 2°42.867 21.6879 0.007991 0.044162 -0.005933
2006-08-17 07:44:11 51°17.959 2°42.844 21.7119 0.007991 0.044162 -0.005933
2006-08-17 07:44:16 51°17.968 2°42.821 21.712 0.007991 0.044162 0.027777
2006-08-17 07:44:21 51°17.976 2°42.798 21.7048 0.007991 0.044162 0.027777
2006-08-17 07:44:26 51°17.984 2°42.775 21.7283 0.007991 0.044163 0.027777
2006-08-17 07:44:31 51°17.992 2°42.751 21.6956 0.007991 0.044163 -0.005933
2006-08-17 07:44:35 51°17.998 2°42.732 21.7082 0.007991 0.044163 -0.005933
2006-08-17 07:44:41 51°18.008 2°42.704 21.7041 0.007991 0.044163 -0.005933
2006-08-17 07:44:46 51°18.015 2°42.68 21.7041 0.007991 0.044163 -0.005933
2006-08-17 07:44:51 51°18.023 2°42.657 21.6921 0.007991 0.044164 0.027777
2006-08-17 07:44:56 51°18.031 2°42.633 21.6886 0.007991 0.044164 0.027777
2006-08-17 07:45:01 51°18.039 2°42.61 21.7004 0.007991 0.044164 -0.005933
2006-08-17 07:45:06 51°18.047 2°42.586 21.7137 0.007991 0.044164 -0.005933
2006-08-17 07:45:10 51°18.053 2°42.567 21.7445 0.007991 0.044165 0.027777
2006-08-17 07:45:16 51°18.063 2°42.54 21.7653 0.007991 0.044165 -0.005933
2006-08-17 07:45:21 51°18.071 2°42.516 21.7787 0.007991 0.044165 -0.005933
2006-08-17 07:45:26 51°18.08 2°42.494 21.7634 0.007991 0.044165 0.027777
2006-08-17 07:45:31 51°18.088 2°42.471 21.7805 0.007991 0.044165 0.027777
2006-08-17 07:45:36 51°18.097 2°42.449 21.8083 0.007991 0.044165 0.027777
2006-08-17 07:45:41 51°18.105 2°42.426 21.8363 0.007991 0.044165 0.027777
2006-08-17 07:45:45 51°18.112 2°42.408 21.8424 0.007991 0.044165 0.027777
2006-08-17 07:45:51 51°18.121 2°42.38 21.8259 0.007991 0.044166 -0.005933
2006-08-17 07:45:56 51°18.129 2°42.357 21.8338 0.007991 0.044166 -0.005933
2006-08-17 07:46:01 51°18.136 2°42.334 21.817 0.007991 0.044166 -0.005933
2006-08-17 07:46:06 51°18.143 2°42.311 21.7732 0.007991 0.044166 -0.005933
2006-08-17 07:46:11 51°18.15 2°42.287 21.6477 0.007991 0.044167 -0.005933
2006-08-17 07:46:16 51°18.157 2°42.264 21.6629 0.007991 0.044167 0.027777
2006-08-17 07:46:21 51°18.165 2°42.242 21.7173 0.007991 0.044167 -0.005933
2006-08-17 07:46:26 51°18.173 2°42.219 21.711 0.007991 0.044166 -0.005933
2006-08-17 07:46:31 51°18.182 2°42.197 21.8366 0.007991 0.044167 -0.005933
2006-08-17 07:46:36 51°18.19 2°42.174 21.8735 0.007991 0.044167 -0.005933
2006-08-17 07:46:41 51°18.199 2°42.152 21.8784 0.007991 0.044167 0.027777
2006-08-17 07:46:46 51°18.207 2°42.13 21.8848 0.007991 0.044167 0.027777
2006-08-17 07:46:51 51°18.216 2°42.108 21.8759 0.007991 0.044168 -0.005933
2006-08-17 07:46:55 51°18.223 2°42.09 21.8935 0.007991 0.044168 0.027777
2006-08-17 07:47:01 51°18.233 2°42.064 21.8576 0.007991 0.044168 -0.005933
2006-08-17 07:47:06 51°18.242 2°42.042 21.8935 0.007991 0.044168 -0.005933
2006-08-17 07:47:11 51°18.25 2°42.019 21.8792 0.007991 0.044169 0.027777
2006-08-17 07:47:16 51°18.259 2°41.997 21.8528 0.007991 0.044169 -0.005933
2006-08-17 07:47:21 51°18.267 2°41.975 21.8774 0.007991 0.044169 -0.005933
2006-08-17 07:47:25 51°18.274 2°41.957 21.868 0.007991 0.044169 0.027777
2006-08-17 07:47:30 51°18.282 2°41.935 21.8665 0.007991 0.04417 -0.005933
2006-08-17 07:47:36 51°18.293 2°41.908 21.8878 0.007991 0.04417 -0.005933
2006-08-17 07:47:41 51°18.301 2°41.885 21.8737 0.007991 0.04417 -0.005933
2006-08-17 07:47:46 51°18.309 2°41.862 21.895 0.007991 0.04417 0.027777
2006-08-17 07:47:51 51°18.318 2°41.84 21.8655 0.007991 0.04417 0.027777
2006-08-17 07:47:56 51°18.326 2°41.817 21.8273 0.007991 0.04417 -0.005933
2006-08-17 07:48:01 51°18.333 2°41.794 21.892 0.007991 0.044171 -0.005933
2006-08-17 07:48:06 51°18.341 2°41.772 21.8787 0.007991 0.044171 -0.005933
2006-08-17 07:48:10 51°18.347 2°41.753 21.8697 0.007991 0.044171 -0.005933
2006-08-17 07:48:16 51°18.356 2°41.726 21.8523 0.007991 0.044171 -0.005933
2006-08-17 07:48:21 51°18.364 2°41.703 21.8531 0.007991 0.044171 0.027777
2006-08-17 07:48:26 51°18.372 2°41.68 21.8717 0.007991 0.044172 0.027777
2006-08-17 07:48:31 51°18.38 2°41.657 21.8924 0.007991 0.044172 0.027777
2006-08-17 07:48:36 51°18.388 2°41.635 21.9078 0.007991 0.044172 0.027777
2006-08-17 07:48:41 51°18.397 2°41.612 21.9243 0.007991 0.044172 -0.005933
2006-08-17 07:48:46 51°18.405 2°41.589 21.914 0.007991 0.044172 -0.005933
2006-08-17 07:48:51 51°18.414 2°41.567 21.8798 0.007991 0.044173 -0.005933
2006-08-17 07:48:56 51°18.422 2°41.545 21.9248 0.007991 0.044173 -0.005933
2006-08-17 07:49:01 51°18.431 2°41.523 21.9221 0.007991 0.044173 -0.005933
2006-08-17 07:49:06 51°18.439 2°41.501 21.9801 0.007991 0.044173 -0.005933
2006-08-17 07:49:11 51°18.448 2°41.478 21.9912 0.007991 0.044173 0.027777
2006-08-17 07:49:16 51°18.456 2°41.456 21.9879 0.007991 0.044174 0.027777
2006-08-17 07:49:21 51°18.465 2°41.434 21.9988 0.007991 0.044174 -0.005933
2006-08-17 07:49:26 51°18.473 2°41.412 22.008 0.007991 0.044174 0.027777
2006-08-17 07:49:31 51°18.481 2°41.389 22.0079 0.007991 0.044174 0.027777
2006-08-17 07:49:36 51°18.489 2°41.367 21.9608 0.007991 0.044174 0.027777
2006-08-17 07:49:41 51°18.498 2°41.345 22.0045 0.007991 0.044174 -0.005933
2006-08-17 07:49:46 51°18.506 2°41.323 22.0016 0.007991 0.044175 0.027777
2006-08-17 07:49:50 51°18.513 2°41.305 22.0047 0.007991 0.044175 0.027777
2006-08-17 07:49:56 51°18.522 2°41.278 22.0189 0.007991 0.044175 0.027777
2006-08-17 07:50:01 51°18.53 2°41.255 21.9959 0.007991 0.044176 -0.005933
2006-08-17 07:50:06 51°18.537 2°41.233 21.9932 0.007991 0.044176 -0.005933
2006-08-17 07:50:11 51°18.546 2°41.21 22.0102 0.007991 0.044176 0.027777
2006-08-17 07:50:16 51°18.554 2°41.188 21.9905 0.007991 0.044176 -0.005933
2006-08-17 07:50:21 51°18.562 2°41.165 21.9193 0.007991 0.044177 -0.005933
2006-08-17 07:50:26 51°18.57 2°41.143 21.9865 0.007991 0.044177 -0.005933
2006-08-17 07:50:31 51°18.58 2°41.122 21.9929 0.007991 0.044177 0.027777
2006-08-17 07:50:36 51°18.59 2°41.101 21.9905 0.007991 0.044177 0.027777
2006-08-17 07:50:41 51°18.6 2°41.081 22.0058 0.007991 0.044177 0.027777
2006-08-17 07:50:46 51°18.611 2°41.062 22.0367 0.007991 0.044177 -0.005933
2006-08-17 07:50:51 51°18.622 2°41.042 22.0529 0.007991 0.044177 -0.005933
2006-08-17 07:50:56 51°18.633 2°41.023 22.0205 0.007991 0.044177 -0.005933
2006-08-17 07:51:01 51°18.645 2°41.004 22.0281 0.007991 0.044177 -0.005933
2006-08-17 07:51:06 51°18.656 2°40.984 22.037 0.007991 0.044177 -0.005933
2006-08-17 07:51:11 51°18.667 2°40.965 22.0393 0.007991 0.044177 0.027777
2006-08-17 07:51:16 51°18.679 2°40.947 22.0129 0.007991 0.044178 0.027777
2006-08-17 07:51:21 51°18.69 2°40.928 22.0767 0.007991 0.044178 0.027777
2006-08-17 07:51:26 51°18.702 2°40.909 22.0692 0.007991 0.044179 0.027777
2006-08-17 07:51:31 51°18.713 2°40.89 22.0741 0.007991 0.044179 -0.005933
2006-08-17 07:51:36 51°18.724 2°40.871 22.04 0.007991 0.044179 -0.005933
2006-08-17 07:51:40 51°18.734 2°40.856 22.0618 0.007991 0.044179 -0.005933
2006-08-17 07:51:46 51°18.747 2°40.833 22.0348 0.007991 0.044179 -0.005933
2006-08-17 07:51:51 51°18.759 2°40.814 22.0635 0.007991 0.04418 0.027777
2006-08-17 07:51:56 51°18.771 2°40.795 22.0668 0.007991 0.04418 -0.005933
2006-08-17 07:52:01 51°18.783 2°40.776 22.1032 0.007991 0.04418 -0.005933
2006-08-17 07:52:06 51°18.794 2°40.757 22.0808 0.007991 0.04418 -0.005933
2006-08-17 07:52:11 51°18.805 2°40.738 22.1089 0.007991 0.04418 0.027777
2006-08-17 07:52:16 51°18.816 2°40.719 22.0992 0.007991 0.04418 -0.005933
2006-08-17 07:52:21 51°18.827 2°40.699 22.1178 0.007991 0.044181 -0.005933
2006-08-17 07:52:26 51°18.837 2°40.68 22.1298 0.007991 0.044181 -0.005933
2006-08-17 07:52:31 51°18.848 2°40.66 22.1087 0.007991 0.044182 0.027777
2006-08-17 07:52:36 51°18.858 2°40.639 22.0792 0.007991 0.044182 0.027777
2006-08-17 07:52:41 51°18.868 2°40.619 22.1112 0.007991 0.044182 -0.005933
2006-08-17 07:52:46 51°18.878 2°40.599 22.0907 0.007991 0.044182 0.027777
2006-08-17 07:52:50 51°18.886 2°40.582 22.076 0.007991 0.044182 0.027777
2006-08-17 07:52:56 51°18.898 2°40.557 22.0502 0.007991 0.044182 0.027777
2006-08-17 07:53:01 51°18.908 2°40.537 22.0662 0.007991 0.044182 -0.005933
2006-08-17 07:53:06 51°18.919 2°40.517 22.0426 0.007991 0.044182 -0.005933
2006-08-17 07:53:10 51°18.928 2°40.502 22.0639 0.007991 0.044183 -0.005933
2006-08-17 07:53:16 51°18.941 2°40.478 22.0565 0.007991 0.044182 -0.005933
2006-08-17 07:53:21 51°18.951 2°40.458 22.0994 0.007991 0.044183 -0.005933
2006-08-17 07:53:26 51°18.962 2°40.438 22.0466 0.007991 0.044183 -0.005933
2006-08-17 07:53:31 51°18.973 2°40.418 22.0746 0.007991 0.044184 -0.005933
2006-08-17 07:53:36 51°18.984 2°40.398 22.1273 0.007991 0.044184 -0.005933
2006-08-17 07:53:41 51°18.995 2°40.378 22.0437 0.007991 0.044184 -0.005933
2006-08-17 07:53:46 51°19.006 2°40.358 21.9287 0.007991 0.044184 0.027777
2006-08-17 07:53:51 51°19.017 2°40.338 21.9536 0.007991 0.044184 -0.005933
2006-08-17 07:53:56 51°19.028 2°40.317 21.9449 0.007991 0.044185 0.027777
2006-08-17 07:54:01 51°19.038 2°40.296 21.9277 0.007991 0.044185 -0.005933
2006-08-17 07:54:06 51°19.049 2°40.276 21.913 0.007991 0.044185 -0.005933
2006-08-17 07:54:11 51°19.06 2°40.255 21.9674 0.007991 0.044185 -0.005933
2006-08-17 07:54:16 51°19.071 2°40.235 21.9756 0.007991 0.044185 -0.005933
2006-08-17 07:54:21 51°19.082 2°40.214 21.9838 0.007991 0.044186 -0.005933
2006-08-17 07:54:26 51°19.093 2°40.194 22.0247 0.007991 0.044186 0.027777
2006-08-17 07:54:31 51°19.104 2°40.173 22.0962 0.007991 0.044186 0.027777
2006-08-17 07:54:36 51°19.116 2°40.153 22.0326 0.007991 0.044186 0.027777
2006-08-17 07:54:41 51°19.126 2°40.131 22.0615 0.007991 0.044187 -0.005933
2006-08-17 07:54:46 51°19.137 2°40.111 22.0663 0.007991 0.044187 -0.005933
2006-08-17 07:54:50 51°19.146 2°40.094 22.0348 0.007991 0.044187 -0.005933
2006-08-17 07:54:56 51°19.159 2°40.069 22.1084 0.007991 0.044187 -0.005933
2006-08-17 07:55:01 51°19.17 2°40.048 22.0883 0.007991 0.044188 -0.005933
2006-08-17 07:55:06 51°19.18 2°40.027 22.118 0.007991 0.044188 -0.005933
2006-08-17 07:55:10 51°19.188 2°40.01 22.0908 0.007991 0.044188 -0.005933
2006-08-17 07:55:16 51°19.201 2°39.984 22.1049 0.007991 0.044188 0.027777
2006-08-17 07:55:21 51°19.21 2°39.963 22.053 0.007991 0.044188 -0.005933
2006-08-17 07:55:26 51°19.22 2°39.941 22.0786 0.007991 0.044189 -0.005933
2006-08-17 07:55:31 51°19.23 2°39.919 22.0922 0.007991 0.044189 -0.005933
2006-08-17 07:55:36 51°19.24 2°39.898 22.0653 0.007991 0.044189 -0.005933
2006-08-17 07:55:41 51°19.251 2°39.876 22.0729 0.007991 0.044189 -0.005933
2006-08-17 07:55:46 51°19.261 2°39.854 22.0521 0.007991 0.04419 -0.005933
2006-08-17 07:55:51 51°19.272 2°39.833 22.1938 0.007991 0.04419 0.027777
2006-08-17 07:55:56 51°19.282 2°39.812 22.2196 0.007991 0.04419 0.027777
2006-08-17 07:56:01 51°19.294 2°39.792 22.2447 0.007991 0.04419 0.027777
2006-08-17 07:56:05 51°19.303 2°39.775 22.2274 0.007991 0.04419 0.027777
2006-08-17 07:56:09 51°19.312 2°39.759 22.2027 0.007991 0.04419 -0.005933
2006-08-17 07:56:16 51°19.328 2°39.73 22.1763 0.007991 0.04419 -0.005933
2006-08-17 07:56:21 51°19.34 2°39.71 22.1033 0.007991 0.044191 0.027777
2006-08-17 07:56:25 51°19.349 2°39.693 22.1803 0.007991 0.044191 -0.005933
2006-08-17 07:56:30 51°19.36 2°39.672 22.1258 0.007991 0.044191 0.027777
2006-08-17 07:56:36 51°19.373 2°39.647 22.1323 0.007991 0.044191 0.027777
2006-08-17 07:56:41 51°19.385 2°39.626 22.1503 0.007991 0.044192 0.027777
2006-08-17 07:56:46 51°19.395 2°39.605 22.1056 0.007991 0.044192 0.027777
2006-08-17 07:56:51 51°19.406 2°39.583 22.1072 0.007991 0.044192 -0.005933
2006-08-17 07:56:56 51°19.417 2°39.562 22.0719 0.007991 0.044192 0.027777
2006-08-17 07:57:01 51°19.428 2°39.541 22.1247 0.007991 0.044192 -0.005933
2006-08-17 07:57:05 51°19.437 2°39.524 22.144 0.007991 0.044192 -0.005933
2006-08-17 07:57:11 51°19.45 2°39.499 22.1571 0.007991 0.044193 -0.005933
2006-08-17 07:57:16 51°19.462 2°39.478 22.255 0.007991 0.044193 -0.005933
2006-08-17 07:57:21 51°19.473 2°39.457 22.2416 0.007991 0.044193 -0.005933
2006-08-17 07:57:26 51°19.483 2°39.435 22.2638 0.007991 0.044194 0.027777
2006-08-17 07:57:31 51°19.494 2°39.414 22.2889 0.007991 0.044194 0.027777
2006-08-17 07:57:35 51°19.503 2°39.397 22.3028 0.007991 0.044194 0.027777
2006-08-17 07:57:41 51°19.515 2°39.371 22.322 0.007991 0.044194 -0.005933
2006-08-17 07:57:46 51°19.526 2°39.349 22.3315 0.007991 0.044195 0.027777
2006-08-17 07:57:49 51°19.532 2°39.336 22.3337 0.007991 0.044195 -0.005933
2006-08-17 07:57:56 51°19.546 2°39.305 22.3538 0.007991 0.044195 -0.005933
2006-08-17 07:58:01 51°19.555 2°39.282 22.3549 0.007991 0.044196 -0.005933
2006-08-17 07:58:05 51°19.563 2°39.264 22.3261 0.007991 0.044196 -0.005933
2006-08-17 07:58:11 51°19.573 2°39.237 22.2591 0.007991 0.044195 -0.005933
2006-08-17 07:58:16 51°19.582 2°39.213 22.175 0.007991 0.044196 -0.005933
2006-08-17 07:58:21 51°19.59 2°39.19 22.1255 0.007991 0.044196 -0.005933
2006-08-17 07:58:26 51°19.598 2°39.167 22.1831 0.007991 0.044196 0.027777
2006-08-17 07:58:30 51°19.605 2°39.148 22.1249 0.007991 0.044196 0.027777
2006-08-17 07:58:36 51°19.613 2°39.12 22.1025 0.007991 0.044196 0.027777
2006-08-17 07:58:41 51°19.621 2°39.096 22.0992 0.007991 0.044196 0.027777
2006-08-17 07:58:45 51°19.627 2°39.077 22.1355 0.007991 0.044197 -0.005933
2006-08-17 07:58:51 51°19.636 2°39.049 22.0824 0.007991 0.044197 -0.005933
2006-08-17 07:58:55 51°19.642 2°39.03 22.2195 0.007991 0.044197 0.027777
2006-08-17 07:59:01 51°19.653 2°39.003 22.1573 0.007991 0.044198 0.027777
2006-08-17 07:59:06 51°19.661 2°38.98 22.1411 0.007991 0.044198 0.027777
2006-08-17 07:59:11 51°19.67 2°38.958 22.1448 0.007991 0.044198 0.027777
2006-08-17 07:59:16 51°19.68 2°38.935 22.1906 0.007991 0.044198 -0.005933
2006-08-17 07:59:21 51°19.689 2°38.913 22.1865 0.007887 0.043712 -0.005933
2006-08-17 07:59:26 51°19.698 2°38.89 22.2174 0.007991 0.044199 0.027777
2006-08-17 07:59:31 51°19.708 2°38.868 22.2159 0.007991 0.044199 -0.005933
2006-08-17 07:59:36 51°19.718 2°38.846 22.2556 0.007991 0.044199 -0.005933
2006-08-17 07:59:41 51°19.727 2°38.823 22.2714 0.007991 0.044199 0.027777
2006-08-17 07:59:46 51°19.736 2°38.801 22.2703 0.007991 0.044199 0.027777
2006-08-17 07:59:51 51°19.745 2°38.778 22.3361 0.007991 0.044199 -0.005933
2006-08-17 07:59:56 51°19.753 2°38.755 22.2794 0.007887 0.043714 -0.005933
2006-08-17 08:00:01 51°19.761 2°38.732 22.336 0.007991 0.0442 0.027777
2006-08-17 08:00:05 51°19.767 2°38.713 22.2523 0.007991 0.0442 0.027777
2006-08-17 08:00:09 51°19.772 2°38.694 22.2256 0.007991 0.0442 0.027777
2006-08-17 08:00:16 51°19.781 2°38.661 22.2993 0.007991 0.0442 -0.005933
2006-08-17 08:00:21 51°19.788 2°38.636 22.2858 0.007991 0.044201 -0.005933
2006-08-17 08:00:26 51°19.794 2°38.612 22.3021 0.007991 0.0442 -0.005933
2006-08-17 08:00:31 51°19.8 2°38.587 22.2797 0.007991 0.044201 0.027777
2006-08-17 08:00:36 51°19.805 2°38.562 22.2694 0.007991 0.044201 0.027777
2006-08-17 08:00:41 51°19.81 2°38.538 22.2512 0.007991 0.044201 0.027777
2006-08-17 08:00:45 51°19.815 2°38.518 22.2149 0.007991 0.044201 -0.005933
2006-08-17 08:00:51 51°19.821 2°38.488 22.2426 0.007991 0.044202 -0.005933
2006-08-17 08:00:56 51°19.826 2°38.463 22.2788 0.007991 0.044201 -0.005933
2006-08-17 08:01:01 51°19.831 2°38.438 22.2438 0.007991 0.044201 -0.005933
2006-08-17 08:01:06 51°19.836 2°38.413 22.2938 0.007991 0.044201 -0.005933
2006-08-17 08:01:11 51°19.842 2°38.388 22.2177 0.007991 0.044202 0.027777
2006-08-17 08:01:16 51°19.847 2°38.363 22.2321 0.007991 0.044202 -0.005933
2006-08-17 08:01:21 51°19.853 2°38.339 22.2505 0.007991 0.044202 -0.005933
2006-08-17 08:01:26 51°19.86 2°38.314 22.2959 0.007991 0.044202 0.027777
2006-08-17 08:01:31 51°19.866 2°38.29 22.2483 0.007991 0.044202 -0.005933
2006-08-17 08:01:36 51°19.873 2°38.266 22.3368 0.007991 0.044202 -0.005933
2006-08-17 08:01:41 51°19.88 2°38.242 22.3224 0.007991 0.044203 -0.005933
2006-08-17 08:01:46 51°19.886 2°38.218 22.3352 0.007991 0.044203 0.027777
2006-08-17 08:01:51 51°19.892 2°38.194 22.3372 0.007991 0.044203 0.027777
2006-08-17 08:01:55 51°19.896 2°38.174 22.3392 0.007991 0.044203 0.027777
2006-08-17 08:02:01 51°19.903 2°38.145 22.3881 0.007991 0.044203 -0.005933
2006-08-17 08:02:06 51°19.908 2°38.121 22.4041 0.007991 0.044203 -0.005933
2006-08-17 08:02:11 51°19.912 2°38.096 22.4544 0.007887 0.043717 -0.005933
2006-08-17 08:02:16 51°19.917 2°38.071 22.4706 0.007991 0.044203 -0.005933
2006-08-17 08:02:21 51°19.921 2°38.047 22.4833 0.007991 0.044204 -0.005933
2006-08-17 08:02:25 51°19.925 2°38.027 22.4857 0.007991 0.044204 0.027777
2006-08-17 08:02:31 51°19.93 2°37.998 22.4818 0.007991 0.044204 0.027777
2006-08-17 08:02:36 51°19.934 2°37.973 22.4681 0.007991 0.044204 0.027777
2006-08-17 08:02:41 51°19.939 2°37.948 22.4751 0.007991 0.044204 -0.005933
2006-08-17 08:02:45 51°19.943 2°37.929 22.4516 0.007991 0.044204 0.027777
2006-08-17 08:02:51 51°19.949 2°37.899 22.4718 0.007887 0.043718 0.027777
2006-08-17 08:02:56 51°19.954 2°37.875 22.451 0.007991 0.044205 0.027777
2006-08-17 08:03:01 51°19.959 2°37.851 22.4178 0.007991 0.044204 -0.005933
2006-08-17 08:03:06 51°19.965 2°37.826 22.4784 0.007991 0.044204 -0.005933
2006-08-17 08:03:11 51°19.971 2°37.803 22.4615 0.007991 0.044204 -0.005933
2006-08-17 08:03:16 51°19.977 2°37.78 22.4991 0.007991 0.044205 0.027777
2006-08-17 08:03:21 51°19.982 2°37.757 22.5237 0.007991 0.044205 -0.005933
2006-08-17 08:03:26 51°19.988 2°37.734 22.5374 0.007991 0.044205 0.027777
2006-08-17 08:03:29 51°19.991 2°37.721 22.5397 0.007991 0.044205 0.027777
2006-08-17 08:03:36 51°19.998 2°37.689 22.5362 0.007991 0.044205 0.027777
2006-08-17 08:03:41 51°20.003 2°37.667 22.5446 0.007991 0.044206 -0.005933
2006-08-17 08:03:46 51°20.009 2°37.645 22.5479 0.007991 0.044204 -0.005933
2006-08-17 08:03:51 51°20.014 2°37.623 22.5164 0.007991 0.044204 -0.005933
2006-08-17 08:03:56 51°20.018 2°37.602 22.5639 0.007991 0.044205 -0.005933
2006-08-17 08:04:01 51°20.023 2°37.582 22.5941 0.007991 0.044205 0.027777
2006-08-17 08:04:06 51°20.028 2°37.562 22.614 0.007991 0.044205 0.027777
2006-08-17 08:04:11 51°20.032 2°37.542 22.6126 0.007991 0.044205 0.027777
2006-08-17 08:04:16 51°20.035 2°37.523 22.5966 0.007991 0.044206 0.027777
2006-08-17 08:04:21 51°20.039 2°37.504 22.6013 0.007991 0.044206 -0.005933
2006-08-17 08:04:26 51°20.042 2°37.485 22.6091 0.007991 0.044207 -0.005933
2006-08-17 08:04:29 51°20.044 2°37.474 22.5996 0.007991 0.044207 0.027777
2006-08-17 08:04:35 51°20.047 2°37.454 22.6073 0.007991 0.044207 0.027777
2006-08-17 08:04:41 51°20.05 2°37.435 22.6287 0.007991 0.044207 -0.005933
2006-08-17 08:04:46 51°20.052 2°37.421 22.6316 0.007991 0.044207 -0.005933
2006-08-17 08:04:51 51°20.053 2°37.408 22.6278 0.007887 0.043721 -0.005933
2006-08-17 08:04:56 51°20.054 2°37.396 22.6267 0.007991 0.044206 -0.005933
2006-08-17 08:05:01 51°20.055 2°37.384 22.6236 0.007991 0.044207 -0.005933
2006-08-17 08:05:06 51°20.055 2°37.373 22.6209 0.007991 0.044207 -0.005933
2006-08-17 08:05:11 51°20.056 2°37.363 22.6194 0.007887 0.04372 0.027777
2006-08-17 08:05:16 51°20.057 2°37.353 22.6216 0.007991 0.044205 0.027777
2006-08-17 08:05:21 51°20.058 2°37.343 22.6142 0.007991 0.044207 0.027777
2006-08-17 08:05:25 51°20.059 2°37.336 22.6337 0.007991 0.044207 -0.005933
2006-08-17 08:05:31 51°20.06 2°37.326 22.6264 0.007991 0.044208 -0.005933
2006-08-17 08:05:36 51°20.062 2°37.318 22.6267 0.007991 0.044208 -0.005933
2006-08-17 08:05:41 51°20.063 2°37.31 22.6273 0.007991 0.044208 -0.005933
2006-08-17 08:05:46 51°20.065 2°37.302 22.6277 0.007991 0.044208 -0.005933
2006-08-17 08:05:51 51°20.067 2°37.293 22.6549 0.007991 0.044208 0.027777
2006-08-17 08:05:56 51°20.069 2°37.285 22.6525 0.007991 0.044209 0.027777
2006-08-17 08:06:01 51°20.07 2°37.277 22.649 0.007991 0.044211 -0.005933
2006-08-17 08:06:05 51°20.072 2°37.271 22.6548 0.007991 0.044211 -0.005933
2006-08-17 08:06:11 51°20.074 2°37.262 22.6609 0.007991 0.044211 0.027777
2006-08-17 08:06:16 51°20.076 2°37.254 22.6558 0.007991 0.044211 -0.005933
2006-08-17 08:06:21 51°20.078 2°37.246 22.6643 0.007991 0.044211 0.027777
2006-08-17 08:06:25 51°20.079 2°37.24 22.6154 0.007991 0.04421 -0.005933
2006-08-17 08:06:31 51°20.081 2°37.23 22.6088 0.007991 0.044211 -0.005933
2006-08-17 08:06:36 51°20.083 2°37.223 22.6276 0.007991 0.044211 -0.005933
2006-08-17 08:06:41 51°20.084 2°37.215 22.6302 0.007991 0.04421 -0.005933
2006-08-17 08:06:46 51°20.086 2°37.207 22.6396 0.007991 0.04421 -0.005933
2006-08-17 08:06:51 51°20.087 2°37.2 22.6696 0.007991 0.04421 -0.005933
2006-08-17 08:06:55 51°20.088 2°37.193 22.6661 0.007991 0.044211 0.027777
2006-08-17 08:07:01 51°20.089 2°37.184 22.6447 0.007991 0.044211 -0.005933
2006-08-17 08:07:06 51°20.09 2°37.176 22.6411 0.007991 0.044211 -0.005933
2006-08-17 08:07:11 51°20.09 2°37.169 22.5679 0.007991 0.044211 0.027777
2006-08-17 08:07:15 51°20.09 2°37.164 22.5582 0.007991 0.044211 -0.005933
2006-08-17 08:07:21 51°20.09 2°37.158 22.5912 0.007991 0.044211 -0.005933
2006-08-17 08:07:25 51°20.09 2°37.154 22.6129 0.007991 0.044212 0.027777
2006-08-17 08:07:31 51°20.09 2°37.15 22.5842 0.007991 0.044212 0.027777
2006-08-17 08:07:36 51°20.09 2°37.147 22.5764 0.007991 0.044212 0.027777
2006-08-17 08:07:41 51°20.091 2°37.146 22.6252 0.007991 0.044212 -0.005933
2006-08-17 08:07:46 51°20.091 2°37.144 22.6031 0.007991 0.044212 -0.005933
2006-08-17 08:07:51 51°20.092 2°37.144 22.633 0.007991 0.044212 -0.005933
2006-08-17 08:07:56 51°20.092 2°37.144 22.6459 0.007991 0.044212 -0.005933
2006-08-17 08:08:01 51°20.093 2°37.144 22.7118 0.007991 0.044212 -0.005933
2006-08-17 08:08:06 51°20.094 2°37.145 22.7071 0.007991 0.044212 -0.005933